<?xml version="1.0" encoding="UTF-8" standalone="no" ?><gpx xmlns="http://www.topografix.com/GPX/1/1" xmlns:gpxx="http://www.garmin.com/xmlschemas/GpxExtensions/v3" xmlns:wptx1="http://www.garmin.com/xmlschemas/WaypointExtension/v1" xmlns:gpxtpx="http://www.garmin.com/xmlschemas/TrackPointExtension/v1" creator="GuideVTT.com" version="1.1" xmlns:xsi="http://www.w3.org/2001/XMLSchema-instance" xsi:schemaLocation="http://www.topografix.com/GPX/1/1 http://www.topografix.com/GPX/1/1/gpx.xsd http://www.garmin.com/xmlschemas/GpxExtensions/v3 http://www8.garmin.com/xmlschemas/GpxExtensionsv3.xsd http://www.garmin.com/xmlschemas/WaypointExtension/v1 http://www8.garmin.com/xmlschemas/WaypointExtensionv1.xsd http://www.garmin.com/xmlschemas/TrackPointExtension/v1 http://www.garmin.com/xmlschemas/TrackPointExtensionv1.xsd">
<metadata><link href="http://www.garmin.com"><text>Garmin International</text></link><time>2013-06-22T15:13:50Z</time></metadata>
<trk><name>rp2016_33.gpx</name><extensions><gpxx:TrackExtension><gpxx:DisplayColor>Cyan</gpxx:DisplayColor></gpxx:TrackExtension></extensions><trkseg>
<trkpt lat="46.20687" lon="7.43974"><ele>1511.6</ele><time>2016-07-31T13:27:49Z</time></trkpt>
<trkpt lat="46.2068" lon="7.43975"><ele>1494</ele><time>2016-07-31T13:27:54Z</time></trkpt>
<trkpt lat="46.20686" lon="7.43979"><ele>1498.2</ele><time>2016-07-31T13:27:55Z</time></trkpt>
<trkpt lat="46.20691" lon="7.43978"><ele>1501.2</ele><time>2016-07-31T13:27:56Z</time></trkpt>
<trkpt lat="46.2071" lon="7.43974"><ele>1494.8</ele><time>2016-07-31T13:28:05Z</time></trkpt>
<trkpt lat="46.20707" lon="7.43971"><ele>1493.2</ele><time>2016-07-31T13:28:06Z</time></trkpt>
<trkpt lat="46.20705" lon="7.4397"><ele>1488.4</ele><time>2016-07-31T13:28:07Z</time></trkpt>
<trkpt lat="46.20734" lon="7.43963"><ele>1491</ele><time>2016-07-31T13:28:14Z</time></trkpt>
<trkpt lat="46.20737" lon="7.43945"><ele>1482.4</ele><time>2016-07-31T13:28:20Z</time></trkpt>
<trkpt lat="46.20742" lon="7.43942"><ele>1480.8</ele><time>2016-07-31T13:28:21Z</time></trkpt>
<trkpt lat="46.20744" lon="7.43943"><ele>1477.4</ele><time>2016-07-31T13:28:22Z</time></trkpt>
<trkpt lat="46.20762" lon="7.43937"><ele>1472</ele><time>2016-07-31T13:28:25Z</time></trkpt>
<trkpt lat="46.20762" lon="7.43932"><ele>1474.8</ele><time>2016-07-31T13:28:26Z</time></trkpt>
<trkpt lat="46.2077" lon="7.43931"><ele>1476.4</ele><time>2016-07-31T13:28:27Z</time></trkpt>
<trkpt lat="46.20777" lon="7.43935"><ele>1476.4</ele><time>2016-07-31T13:28:31Z</time></trkpt>
<trkpt lat="46.20783" lon="7.43938"><ele>1478</ele><time>2016-07-31T13:28:32Z</time></trkpt>
<trkpt lat="46.20803" lon="7.43939"><ele>1477</ele><time>2016-07-31T13:28:37Z</time></trkpt>
<trkpt lat="46.20807" lon="7.43941"><ele>1473.4</ele><time>2016-07-31T13:28:38Z</time></trkpt>
<trkpt lat="46.20826" lon="7.4395"><ele>1488.4</ele><time>2016-07-31T13:28:40Z</time></trkpt>
<trkpt lat="46.2082" lon="7.43944"><ele>1470.6</ele><time>2016-07-31T13:28:42Z</time></trkpt>
<trkpt lat="46.2084" lon="7.43944"><ele>1480.8</ele><time>2016-07-31T13:28:45Z</time></trkpt>
<trkpt lat="46.20864" lon="7.43946"><ele>1479.6</ele><time>2016-07-31T13:28:50Z</time></trkpt>
<trkpt lat="46.20874" lon="7.43949"><ele>1473.6</ele><time>2016-07-31T13:28:52Z</time></trkpt>
<trkpt lat="46.20876" lon="7.43952"><ele>1465.4</ele><time>2016-07-31T13:28:53Z</time></trkpt>
<trkpt lat="46.20898" lon="7.43951"><ele>1485</ele><time>2016-07-31T13:28:55Z</time></trkpt>
<trkpt lat="46.20907" lon="7.43947"><ele>1482.6</ele><time>2016-07-31T13:28:57Z</time></trkpt>
<trkpt lat="46.20945" lon="7.43935"><ele>1475.2</ele><time>2016-07-31T13:29:02Z</time></trkpt>
<trkpt lat="46.20968" lon="7.43932"><ele>1474.4</ele><time>2016-07-31T13:29:05Z</time></trkpt>
<trkpt lat="46.20975" lon="7.4393"><ele>1470.8</ele><time>2016-07-31T13:29:06Z</time></trkpt>
<trkpt lat="46.20991" lon="7.43916"><ele>1463.6</ele><time>2016-07-31T13:29:08Z</time></trkpt>
<trkpt lat="46.21017" lon="7.43898"><ele>1467.2</ele><time>2016-07-31T13:29:10Z</time></trkpt>
<trkpt lat="46.21034" lon="7.43888"><ele>1443.2</ele><time>2016-07-31T13:29:12Z</time></trkpt>
<trkpt lat="46.2105" lon="7.43852"><ele>1461.6</ele><time>2016-07-31T13:29:14Z</time></trkpt>
<trkpt lat="46.21072" lon="7.43829"><ele>1466.4</ele><time>2016-07-31T13:29:16Z</time></trkpt>
<trkpt lat="46.21088" lon="7.43814"><ele>1460</ele><time>2016-07-31T13:29:18Z</time></trkpt>
<trkpt lat="46.21095" lon="7.43801"><ele>1448</ele><time>2016-07-31T13:29:20Z</time></trkpt>
<trkpt lat="46.2111" lon="7.43774"><ele>1449.6</ele><time>2016-07-31T13:29:24Z</time></trkpt>
<trkpt lat="46.21132" lon="7.4377"><ele>1458.4</ele><time>2016-07-31T13:29:27Z</time></trkpt>
<trkpt lat="46.21141" lon="7.43761"><ele>1456.8</ele><time>2016-07-31T13:29:32Z</time></trkpt>
<trkpt lat="46.21149" lon="7.43755"><ele>1456.2</ele><time>2016-07-31T13:29:36Z</time></trkpt>
<trkpt lat="46.21155" lon="7.43751"><ele>1455.2</ele><time>2016-07-31T13:29:40Z</time></trkpt>
<trkpt lat="46.21161" lon="7.43748"><ele>1454</ele><time>2016-07-31T13:29:44Z</time></trkpt>
<trkpt lat="46.21168" lon="7.43744"><ele>1453.6</ele><time>2016-07-31T13:29:48Z</time></trkpt>
<trkpt lat="46.21171" lon="7.43746"><ele>1453.2</ele><time>2016-07-31T13:29:52Z</time></trkpt>
<trkpt lat="46.21196" lon="7.43734"><ele>1459</ele><time>2016-07-31T13:30:08Z</time></trkpt>
<trkpt lat="46.21204" lon="7.4373"><ele>1459.8</ele><time>2016-07-31T13:30:13Z</time></trkpt>
<trkpt lat="46.21214" lon="7.43721"><ele>1460.8</ele><time>2016-07-31T13:30:20Z</time></trkpt>
<trkpt lat="46.21216" lon="7.43718"><ele>1461.6</ele><time>2016-07-31T13:30:22Z</time></trkpt>
<trkpt lat="46.21221" lon="7.43712"><ele>1462.2</ele><time>2016-07-31T13:30:26Z</time></trkpt>
<trkpt lat="46.21236" lon="7.43696"><ele>1464.2</ele><time>2016-07-31T13:30:38Z</time></trkpt>
<trkpt lat="46.21252" lon="7.43681"><ele>1465.6</ele><time>2016-07-31T13:30:50Z</time></trkpt>
<trkpt lat="46.21261" lon="7.43672"><ele>1466.2</ele><time>2016-07-31T13:30:57Z</time></trkpt>
<trkpt lat="46.21277" lon="7.43656"><ele>1468.6</ele><time>2016-07-31T13:31:09Z</time></trkpt>
<trkpt lat="46.21287" lon="7.43647"><ele>1469.8</ele><time>2016-07-31T13:31:16Z</time></trkpt>
<trkpt lat="46.21289" lon="7.43643"><ele>1470.2</ele><time>2016-07-31T13:31:18Z</time></trkpt>
<trkpt lat="46.21296" lon="7.43637"><ele>1470.8</ele><time>2016-07-31T13:31:23Z</time></trkpt>
<trkpt lat="46.21306" lon="7.43629"><ele>1471.6</ele><time>2016-07-31T13:31:30Z</time></trkpt>
<trkpt lat="46.21319" lon="7.43643"><ele>1473.2</ele><time>2016-07-31T13:31:41Z</time></trkpt>
<trkpt lat="46.21309" lon="7.4366"><ele>1474.6</ele><time>2016-07-31T13:31:50Z</time></trkpt>
<trkpt lat="46.21296" lon="7.4367"><ele>1475.8</ele><time>2016-07-31T13:31:58Z</time></trkpt>
<trkpt lat="46.21282" lon="7.43689"><ele>1477</ele><time>2016-07-31T13:32:08Z</time></trkpt>
<trkpt lat="46.21272" lon="7.43711"><ele>1478.8</ele><time>2016-07-31T13:32:18Z</time></trkpt>
<trkpt lat="46.21261" lon="7.43734"><ele>1480.6</ele><time>2016-07-31T13:32:30Z</time></trkpt>
<trkpt lat="46.21251" lon="7.43757"><ele>1482.4</ele><time>2016-07-31T13:32:42Z</time></trkpt>
<trkpt lat="46.21244" lon="7.43771"><ele>1483.4</ele><time>2016-07-31T13:32:49Z</time></trkpt>
<trkpt lat="46.21225" lon="7.43794"><ele>1485.8</ele><time>2016-07-31T13:33:04Z</time></trkpt>
<trkpt lat="46.2121" lon="7.43811"><ele>1487.4</ele><time>2016-07-31T13:33:15Z</time></trkpt>
<trkpt lat="46.21199" lon="7.43832"><ele>1489.2</ele><time>2016-07-31T13:33:27Z</time></trkpt>
<trkpt lat="46.21187" lon="7.43855"><ele>1491</ele><time>2016-07-31T13:33:39Z</time></trkpt>
<trkpt lat="46.21183" lon="7.43866"><ele>1491.8</ele><time>2016-07-31T13:33:44Z</time></trkpt>
<trkpt lat="46.21175" lon="7.43879"><ele>1493.2</ele><time>2016-07-31T13:33:51Z</time></trkpt>
<trkpt lat="46.21165" lon="7.43901"><ele>1495.2</ele><time>2016-07-31T13:34:03Z</time></trkpt>
<trkpt lat="46.21148" lon="7.43929"><ele>1498.2</ele><time>2016-07-31T13:34:19Z</time></trkpt>
<trkpt lat="46.21131" lon="7.43941"><ele>1499.2</ele><time>2016-07-31T13:34:30Z</time></trkpt>
<trkpt lat="46.21115" lon="7.43956"><ele>1500.2</ele><time>2016-07-31T13:34:40Z</time></trkpt>
<trkpt lat="46.211" lon="7.43974"><ele>1501.8</ele><time>2016-07-31T13:34:51Z</time></trkpt>
<trkpt lat="46.21086" lon="7.4399"><ele>1502.6</ele><time>2016-07-31T13:35:02Z</time></trkpt>
<trkpt lat="46.21078" lon="7.44"><ele>1503.2</ele><time>2016-07-31T13:35:08Z</time></trkpt>
<trkpt lat="46.21071" lon="7.44009"><ele>1503.8</ele><time>2016-07-31T13:35:13Z</time></trkpt>
<trkpt lat="46.21055" lon="7.44026"><ele>1504.8</ele><time>2016-07-31T13:35:24Z</time></trkpt>
<trkpt lat="46.21041" lon="7.44045"><ele>1506</ele><time>2016-07-31T13:35:35Z</time></trkpt>
<trkpt lat="46.21032" lon="7.44055"><ele>1507</ele><time>2016-07-31T13:35:42Z</time></trkpt>
<trkpt lat="46.2102" lon="7.44069"><ele>1508.4</ele><time>2016-07-31T13:35:52Z</time></trkpt>
<trkpt lat="46.21004" lon="7.44084"><ele>1510.4</ele><time>2016-07-31T13:36:04Z</time></trkpt>
<trkpt lat="46.20989" lon="7.44097"><ele>1511.6</ele><time>2016-07-31T13:36:15Z</time></trkpt>
<trkpt lat="46.20972" lon="7.44108"><ele>1514</ele><time>2016-07-31T13:36:25Z</time></trkpt>
<trkpt lat="46.20954" lon="7.44116"><ele>1515.6</ele><time>2016-07-31T13:36:36Z</time></trkpt>
<trkpt lat="46.20936" lon="7.4412"><ele>1517</ele><time>2016-07-31T13:36:47Z</time></trkpt>
<trkpt lat="46.20917" lon="7.44122"><ele>1518</ele><time>2016-07-31T13:36:59Z</time></trkpt>
<trkpt lat="46.20892" lon="7.44127"><ele>1519.8</ele><time>2016-07-31T13:37:14Z</time></trkpt>
<trkpt lat="46.20874" lon="7.44131"><ele>1521</ele><time>2016-07-31T13:37:25Z</time></trkpt>
<trkpt lat="46.20856" lon="7.44137"><ele>1522.6</ele><time>2016-07-31T13:37:36Z</time></trkpt>
<trkpt lat="46.20837" lon="7.44142"><ele>1523.6</ele><time>2016-07-31T13:37:47Z</time></trkpt>
<trkpt lat="46.20821" lon="7.44148"><ele>1524.2</ele><time>2016-07-31T13:37:57Z</time></trkpt>
<trkpt lat="46.20804" lon="7.44155"><ele>1525.6</ele><time>2016-07-31T13:38:07Z</time></trkpt>
<trkpt lat="46.20785" lon="7.44161"><ele>1527.4</ele><time>2016-07-31T13:38:19Z</time></trkpt>
<trkpt lat="46.20765" lon="7.44165"><ele>1530.6</ele><time>2016-07-31T13:38:31Z</time></trkpt>
<trkpt lat="46.20736" lon="7.4416"><ele>1534</ele><time>2016-07-31T13:38:48Z</time></trkpt>
<trkpt lat="46.20718" lon="7.44154"><ele>1535.6</ele><time>2016-07-31T13:38:59Z</time></trkpt>
<trkpt lat="46.20702" lon="7.44141"><ele>1537.8</ele><time>2016-07-31T13:39:10Z</time></trkpt>
<trkpt lat="46.20687" lon="7.44127"><ele>1539.2</ele><time>2016-07-31T13:39:21Z</time></trkpt>
<trkpt lat="46.2068" lon="7.44121"><ele>1539.8</ele><time>2016-07-31T13:39:26Z</time></trkpt>
<trkpt lat="46.20664" lon="7.44108"><ele>1540.6</ele><time>2016-07-31T13:39:37Z</time></trkpt>
<trkpt lat="46.20642" lon="7.44088"><ele>1542.4</ele><time>2016-07-31T13:39:53Z</time></trkpt>
<trkpt lat="46.20626" lon="7.44074"><ele>1544</ele><time>2016-07-31T13:40:05Z</time></trkpt>
<trkpt lat="46.2061" lon="7.4406"><ele>1545.8</ele><time>2016-07-31T13:40:16Z</time></trkpt>
<trkpt lat="46.20593" lon="7.44051"><ele>1547.2</ele><time>2016-07-31T13:40:27Z</time></trkpt>
<trkpt lat="46.20576" lon="7.44038"><ele>1548.4</ele><time>2016-07-31T13:40:39Z</time></trkpt>
<trkpt lat="46.2056" lon="7.44027"><ele>1549.6</ele><time>2016-07-31T13:40:51Z</time></trkpt>
<trkpt lat="46.20537" lon="7.44015"><ele>1550.6</ele><time>2016-07-31T13:41:07Z</time></trkpt>
<trkpt lat="46.20521" lon="7.44004"><ele>1552</ele><time>2016-07-31T13:41:18Z</time></trkpt>
<trkpt lat="46.20504" lon="7.43995"><ele>1552.6</ele><time>2016-07-31T13:41:29Z</time></trkpt>
<trkpt lat="46.20486" lon="7.43985"><ele>1554</ele><time>2016-07-31T13:41:39Z</time></trkpt>
<trkpt lat="46.20469" lon="7.43974"><ele>1555.8</ele><time>2016-07-31T13:41:50Z</time></trkpt>
<trkpt lat="46.20459" lon="7.43966"><ele>1556.6</ele><time>2016-07-31T13:41:56Z</time></trkpt>
<trkpt lat="46.2044" lon="7.43961"><ele>1557.6</ele><time>2016-07-31T13:42:09Z</time></trkpt>
<trkpt lat="46.20439" lon="7.43965"><ele>1558</ele><time>2016-07-31T13:42:11Z</time></trkpt>
<trkpt lat="46.20444" lon="7.43979"><ele>1559.4</ele><time>2016-07-31T13:42:17Z</time></trkpt>
<trkpt lat="46.2046" lon="7.43993"><ele>1562</ele><time>2016-07-31T13:42:28Z</time></trkpt>
<trkpt lat="46.20463" lon="7.43995"><ele>1562.6</ele><time>2016-07-31T13:42:30Z</time></trkpt>
<trkpt lat="46.20481" lon="7.44009"><ele>1569</ele><time>2016-07-31T13:42:45Z</time></trkpt>
<trkpt lat="46.20494" lon="7.44026"><ele>1572.8</ele><time>2016-07-31T13:42:58Z</time></trkpt>
<trkpt lat="46.205" lon="7.44035"><ele>1575.2</ele><time>2016-07-31T13:43:07Z</time></trkpt>
<trkpt lat="46.20501" lon="7.44036"><ele>1575.4</ele><time>2016-07-31T13:43:08Z</time></trkpt>
<trkpt lat="46.20514" lon="7.44047"><ele>1578.4</ele><time>2016-07-31T13:43:20Z</time></trkpt>
<trkpt lat="46.20526" lon="7.44057"><ele>1581.6</ele><time>2016-07-31T13:43:30Z</time></trkpt>
<trkpt lat="46.20541" lon="7.44074"><ele>1585.2</ele><time>2016-07-31T13:43:41Z</time></trkpt>
<trkpt lat="46.20554" lon="7.44087"><ele>1588.2</ele><time>2016-07-31T13:43:52Z</time></trkpt>
<trkpt lat="46.20567" lon="7.44107"><ele>1590.4</ele><time>2016-07-31T13:44:02Z</time></trkpt>
<trkpt lat="46.20579" lon="7.44129"><ele>1592.8</ele><time>2016-07-31T13:44:14Z</time></trkpt>
<trkpt lat="46.20586" lon="7.44154"><ele>1595</ele><time>2016-07-31T13:44:28Z</time></trkpt>
<trkpt lat="46.20592" lon="7.44179"><ele>1596.8</ele><time>2016-07-31T13:44:42Z</time></trkpt>
<trkpt lat="46.20593" lon="7.44204"><ele>1600.2</ele><time>2016-07-31T13:44:56Z</time></trkpt>
<trkpt lat="46.20595" lon="7.44217"><ele>1602.6</ele><time>2016-07-31T13:45:04Z</time></trkpt>
<trkpt lat="46.20602" lon="7.44243"><ele>1607.4</ele><time>2016-07-31T13:45:18Z</time></trkpt>
<trkpt lat="46.20609" lon="7.44268"><ele>1611.2</ele><time>2016-07-31T13:45:31Z</time></trkpt>
<trkpt lat="46.20615" lon="7.44294"><ele>1615.4</ele><time>2016-07-31T13:45:47Z</time></trkpt>
<trkpt lat="46.20626" lon="7.44317"><ele>1621.8</ele><time>2016-07-31T13:46:05Z</time></trkpt>
<trkpt lat="46.20632" lon="7.44327"><ele>1626</ele><time>2016-07-31T13:46:16Z</time></trkpt>
<trkpt lat="46.20648" lon="7.44343"><ele>1632.2</ele><time>2016-07-31T13:46:31Z</time></trkpt>
<trkpt lat="46.20662" lon="7.44356"><ele>1635.8</ele><time>2016-07-31T13:46:45Z</time></trkpt>
<trkpt lat="46.2067" lon="7.44362"><ele>1636.8</ele><time>2016-07-31T13:46:52Z</time></trkpt>
<trkpt lat="46.20687" lon="7.44374"><ele>1640</ele><time>2016-07-31T13:47:03Z</time></trkpt>
<trkpt lat="46.20701" lon="7.4439"><ele>1644</ele><time>2016-07-31T13:47:14Z</time></trkpt>
<trkpt lat="46.20714" lon="7.44408"><ele>1646.8</ele><time>2016-07-31T13:47:25Z</time></trkpt>
<trkpt lat="46.20719" lon="7.44418"><ele>1646.2</ele><time>2016-07-31T13:47:30Z</time></trkpt>
<trkpt lat="46.2073" lon="7.44451"><ele>1643.6</ele><time>2016-07-31T13:47:47Z</time></trkpt>
<trkpt lat="46.20742" lon="7.4447"><ele>1643</ele><time>2016-07-31T13:47:59Z</time></trkpt>
<trkpt lat="46.20752" lon="7.44479"><ele>1643.4</ele><time>2016-07-31T13:48:09Z</time></trkpt>
<trkpt lat="46.20756" lon="7.44483"><ele>1643.2</ele><time>2016-07-31T13:48:13Z</time></trkpt>
<trkpt lat="46.20769" lon="7.44504"><ele>1640.2</ele><time>2016-07-31T13:48:29Z</time></trkpt>
<trkpt lat="46.20775" lon="7.44506"><ele>1640.2</ele><time>2016-07-31T13:48:34Z</time></trkpt>
<trkpt lat="46.20795" lon="7.4452"><ele>1639.6</ele><time>2016-07-31T13:48:59Z</time></trkpt>
<trkpt lat="46.20811" lon="7.44533"><ele>1636.2</ele><time>2016-07-31T13:49:11Z</time></trkpt>
<trkpt lat="46.20827" lon="7.44548"><ele>1636</ele><time>2016-07-31T13:49:24Z</time></trkpt>
<trkpt lat="46.20844" lon="7.44558"><ele>1636.2</ele><time>2016-07-31T13:49:35Z</time></trkpt>
<trkpt lat="46.20852" lon="7.44564"><ele>1636</ele><time>2016-07-31T13:49:41Z</time></trkpt>
<trkpt lat="46.20863" lon="7.44573"><ele>1634.8</ele><time>2016-07-31T13:49:52Z</time></trkpt>
<trkpt lat="46.20875" lon="7.4458"><ele>1634.4</ele><time>2016-07-31T13:50:03Z</time></trkpt>
<trkpt lat="46.2089" lon="7.44593"><ele>1634.4</ele><time>2016-07-31T13:50:15Z</time></trkpt>
<trkpt lat="46.20897" lon="7.44599"><ele>1634.6</ele><time>2016-07-31T13:50:20Z</time></trkpt>
<trkpt lat="46.20911" lon="7.44607"><ele>1635</ele><time>2016-07-31T13:50:31Z</time></trkpt>
<trkpt lat="46.20929" lon="7.44614"><ele>1635.4</ele><time>2016-07-31T13:50:46Z</time></trkpt>
<trkpt lat="46.20947" lon="7.4461"><ele>1634.2</ele><time>2016-07-31T13:51:00Z</time></trkpt>
<trkpt lat="46.20958" lon="7.44603"><ele>1634.6</ele><time>2016-07-31T13:51:08Z</time></trkpt>
<trkpt lat="46.20966" lon="7.44599"><ele>1634.6</ele><time>2016-07-31T13:51:15Z</time></trkpt>
<trkpt lat="46.20969" lon="7.44597"><ele>1634.4</ele><time>2016-07-31T13:51:17Z</time></trkpt>
<trkpt lat="46.20975" lon="7.44594"><ele>1635</ele><time>2016-07-31T13:51:21Z</time></trkpt>
<trkpt lat="46.20987" lon="7.4459"><ele>1635</ele><time>2016-07-31T13:51:29Z</time></trkpt>
<trkpt lat="46.21" lon="7.4458"><ele>1636.2</ele><time>2016-07-31T13:51:39Z</time></trkpt>
<trkpt lat="46.21008" lon="7.44579"><ele>1636.6</ele><time>2016-07-31T13:51:46Z</time></trkpt>
<trkpt lat="46.21024" lon="7.44571"><ele>1638.6</ele><time>2016-07-31T13:51:59Z</time></trkpt>
<trkpt lat="46.21042" lon="7.44565"><ele>1641</ele><time>2016-07-31T13:52:13Z</time></trkpt>
<trkpt lat="46.21059" lon="7.44553"><ele>1643.2</ele><time>2016-07-31T13:52:28Z</time></trkpt>
<trkpt lat="46.21081" lon="7.4454"><ele>1645.4</ele><time>2016-07-31T13:52:46Z</time></trkpt>
<trkpt lat="46.21098" lon="7.44531"><ele>1647</ele><time>2016-07-31T13:53:01Z</time></trkpt>
<trkpt lat="46.21108" lon="7.44527"><ele>1648.8</ele><time>2016-07-31T13:53:09Z</time></trkpt>
<trkpt lat="46.21114" lon="7.44525"><ele>1650.2</ele><time>2016-07-31T13:53:15Z</time></trkpt>
<trkpt lat="46.21119" lon="7.44523"><ele>1651.4</ele><time>2016-07-31T13:53:20Z</time></trkpt>
<trkpt lat="46.21137" lon="7.44515"><ele>1655.4</ele><time>2016-07-31T13:53:36Z</time></trkpt>
<trkpt lat="46.21156" lon="7.44512"><ele>1655.8</ele><time>2016-07-31T13:53:50Z</time></trkpt>
<trkpt lat="46.21174" lon="7.44514"><ele>1656.2</ele><time>2016-07-31T13:54:04Z</time></trkpt>
<trkpt lat="46.21182" lon="7.44514"><ele>1656.2</ele><time>2016-07-31T13:54:10Z</time></trkpt>
<trkpt lat="46.21199" lon="7.44519"><ele>1658.2</ele><time>2016-07-31T13:54:24Z</time></trkpt>
<trkpt lat="46.21217" lon="7.4453"><ele>1660</ele><time>2016-07-31T13:54:39Z</time></trkpt>
<trkpt lat="46.21234" lon="7.4454"><ele>1661.8</ele><time>2016-07-31T13:54:54Z</time></trkpt>
<trkpt lat="46.21241" lon="7.44543"><ele>1663</ele><time>2016-07-31T13:55:00Z</time></trkpt>
<trkpt lat="46.2126" lon="7.44543"><ele>1666.4</ele><time>2016-07-31T13:55:15Z</time></trkpt>
<trkpt lat="46.21268" lon="7.4454"><ele>1667.6</ele><time>2016-07-31T13:55:22Z</time></trkpt>
<trkpt lat="46.21287" lon="7.44535"><ele>1668.4</ele><time>2016-07-31T13:55:36Z</time></trkpt>
<trkpt lat="46.21304" lon="7.44529"><ele>1671.6</ele><time>2016-07-31T13:55:50Z</time></trkpt>
<trkpt lat="46.21322" lon="7.44533"><ele>1674.4</ele><time>2016-07-31T13:56:06Z</time></trkpt>
<trkpt lat="46.21323" lon="7.44533"><ele>1674.6</ele><time>2016-07-31T13:56:07Z</time></trkpt>
<trkpt lat="46.21331" lon="7.44532"><ele>1675.8</ele><time>2016-07-31T13:56:14Z</time></trkpt>
<trkpt lat="46.21338" lon="7.44529"><ele>1677</ele><time>2016-07-31T13:56:20Z</time></trkpt>
<trkpt lat="46.21356" lon="7.44526"><ele>1678</ele><time>2016-07-31T13:56:33Z</time></trkpt>
<trkpt lat="46.21374" lon="7.44518"><ele>1679</ele><time>2016-07-31T13:56:47Z</time></trkpt>
<trkpt lat="46.21389" lon="7.44502"><ele>1680.2</ele><time>2016-07-31T13:57:01Z</time></trkpt>
<trkpt lat="46.21392" lon="7.44495"><ele>1681.2</ele><time>2016-07-31T13:57:05Z</time></trkpt>
<trkpt lat="46.21403" lon="7.44475"><ele>1683.4</ele><time>2016-07-31T13:57:19Z</time></trkpt>
<trkpt lat="46.2141" lon="7.44453"><ele>1685</ele><time>2016-07-31T13:57:33Z</time></trkpt>
<trkpt lat="46.21415" lon="7.4444"><ele>1686.2</ele><time>2016-07-31T13:57:42Z</time></trkpt>
<trkpt lat="46.21418" lon="7.44434"><ele>1686.6</ele><time>2016-07-31T13:57:46Z</time></trkpt>
<trkpt lat="46.2143" lon="7.44415"><ele>1688</ele><time>2016-07-31T13:58:00Z</time></trkpt>
<trkpt lat="46.21439" lon="7.44403"><ele>1689.6</ele><time>2016-07-31T13:58:09Z</time></trkpt>
<trkpt lat="46.21449" lon="7.44394"><ele>1690.4</ele><time>2016-07-31T13:58:19Z</time></trkpt>
<trkpt lat="46.21458" lon="7.44389"><ele>1692.6</ele><time>2016-07-31T13:58:27Z</time></trkpt>
<trkpt lat="46.21464" lon="7.44385"><ele>1694.6</ele><time>2016-07-31T13:58:33Z</time></trkpt>
<trkpt lat="46.21467" lon="7.44384"><ele>1695.4</ele><time>2016-07-31T13:58:35Z</time></trkpt>
<trkpt lat="46.21478" lon="7.4438"><ele>1696.6</ele><time>2016-07-31T13:58:45Z</time></trkpt>
<trkpt lat="46.21482" lon="7.44375"><ele>1697.4</ele><time>2016-07-31T13:58:49Z</time></trkpt>
<trkpt lat="46.21489" lon="7.4437"><ele>1698.4</ele><time>2016-07-31T13:58:55Z</time></trkpt>
<trkpt lat="46.21496" lon="7.44363"><ele>1699.6</ele><time>2016-07-31T13:59:02Z</time></trkpt>
<trkpt lat="46.21501" lon="7.44353"><ele>1701.6</ele><time>2016-07-31T13:59:09Z</time></trkpt>
<trkpt lat="46.21502" lon="7.44351"><ele>1702</ele><time>2016-07-31T13:59:11Z</time></trkpt>
<trkpt lat="46.21507" lon="7.44337"><ele>1704.2</ele><time>2016-07-31T13:59:19Z</time></trkpt>
<trkpt lat="46.2151" lon="7.44329"><ele>1706</ele><time>2016-07-31T13:59:24Z</time></trkpt>
<trkpt lat="46.21515" lon="7.44317"><ele>1707.6</ele><time>2016-07-31T13:59:31Z</time></trkpt>
<trkpt lat="46.2152" lon="7.44309"><ele>1707.4</ele><time>2016-07-31T13:59:36Z</time></trkpt>
<trkpt lat="46.21534" lon="7.44294"><ele>1708.6</ele><time>2016-07-31T13:59:49Z</time></trkpt>
<trkpt lat="46.21549" lon="7.44286"><ele>1709.6</ele><time>2016-07-31T14:00:00Z</time></trkpt>
<trkpt lat="46.2156" lon="7.4428"><ele>1710.4</ele><time>2016-07-31T14:00:09Z</time></trkpt>
<trkpt lat="46.2157" lon="7.44275"><ele>1710.8</ele><time>2016-07-31T14:00:16Z</time></trkpt>
<trkpt lat="46.21587" lon="7.44279"><ele>1712</ele><time>2016-07-31T14:00:28Z</time></trkpt>
<trkpt lat="46.21591" lon="7.44291"><ele>1712.2</ele><time>2016-07-31T14:00:34Z</time></trkpt>
<trkpt lat="46.21582" lon="7.443"><ele>1712.4</ele><time>2016-07-31T14:00:41Z</time></trkpt>
<trkpt lat="46.21566" lon="7.44306"><ele>1713.4</ele><time>2016-07-31T14:00:52Z</time></trkpt>
<trkpt lat="46.2155" lon="7.44317"><ele>1714.8</ele><time>2016-07-31T14:01:05Z</time></trkpt>
<trkpt lat="46.21539" lon="7.4434"><ele>1716</ele><time>2016-07-31T14:01:19Z</time></trkpt>
<trkpt lat="46.21535" lon="7.44366"><ele>1717.2</ele><time>2016-07-31T14:01:32Z</time></trkpt>
<trkpt lat="46.21532" lon="7.44395"><ele>1718.2</ele><time>2016-07-31T14:01:47Z</time></trkpt>
<trkpt lat="46.21528" lon="7.4442"><ele>1719.6</ele><time>2016-07-31T14:02:00Z</time></trkpt>
<trkpt lat="46.21526" lon="7.44438"><ele>1721.2</ele><time>2016-07-31T14:02:09Z</time></trkpt>
<trkpt lat="46.21525" lon="7.44449"><ele>1722</ele><time>2016-07-31T14:02:15Z</time></trkpt>
<trkpt lat="46.21524" lon="7.44464"><ele>1723.2</ele><time>2016-07-31T14:02:23Z</time></trkpt>
<trkpt lat="46.21523" lon="7.44477"><ele>1724</ele><time>2016-07-31T14:02:30Z</time></trkpt>
<trkpt lat="46.21521" lon="7.44485"><ele>1724.4</ele><time>2016-07-31T14:02:34Z</time></trkpt>
<trkpt lat="46.21519" lon="7.44491"><ele>1724.8</ele><time>2016-07-31T14:02:38Z</time></trkpt>
<trkpt lat="46.21518" lon="7.44497"><ele>1725.6</ele><time>2016-07-31T14:02:42Z</time></trkpt>
<trkpt lat="46.21513" lon="7.44507"><ele>1726.6</ele><time>2016-07-31T14:02:48Z</time></trkpt>
<trkpt lat="46.21506" lon="7.44525"><ele>1728.8</ele><time>2016-07-31T14:02:59Z</time></trkpt>
<trkpt lat="46.21502" lon="7.44539"><ele>1730.4</ele><time>2016-07-31T14:03:08Z</time></trkpt>
<trkpt lat="46.21497" lon="7.44552"><ele>1731.6</ele><time>2016-07-31T14:03:15Z</time></trkpt>
<trkpt lat="46.21493" lon="7.44567"><ele>1733.2</ele><time>2016-07-31T14:03:24Z</time></trkpt>
<trkpt lat="46.2149" lon="7.44575"><ele>1733.8</ele><time>2016-07-31T14:03:29Z</time></trkpt>
<trkpt lat="46.21488" lon="7.44583"><ele>1734</ele><time>2016-07-31T14:03:33Z</time></trkpt>
<trkpt lat="46.21485" lon="7.44598"><ele>1735.2</ele><time>2016-07-31T14:03:42Z</time></trkpt>
<trkpt lat="46.2148" lon="7.4462"><ele>1737.2</ele><time>2016-07-31T14:03:55Z</time></trkpt>
<trkpt lat="46.21475" lon="7.44644"><ele>1739.2</ele><time>2016-07-31T14:04:08Z</time></trkpt>
<trkpt lat="46.21468" lon="7.44659"><ele>1740.8</ele><time>2016-07-31T14:04:18Z</time></trkpt>
<trkpt lat="46.21459" lon="7.44673"><ele>1742.6</ele><time>2016-07-31T14:04:29Z</time></trkpt>
<trkpt lat="46.21444" lon="7.44687"><ele>1745.8</ele><time>2016-07-31T14:04:41Z</time></trkpt>
<trkpt lat="46.21431" lon="7.44706"><ele>1749</ele><time>2016-07-31T14:04:55Z</time></trkpt>
<trkpt lat="46.21421" lon="7.44718"><ele>1751</ele><time>2016-07-31T14:05:05Z</time></trkpt>
<trkpt lat="46.21407" lon="7.44737"><ele>1752.8</ele><time>2016-07-31T14:05:19Z</time></trkpt>
<trkpt lat="46.21397" lon="7.44749"><ele>1753.2</ele><time>2016-07-31T14:05:29Z</time></trkpt>
<trkpt lat="46.21395" lon="7.44752"><ele>1753.4</ele><time>2016-07-31T14:05:32Z</time></trkpt>
<trkpt lat="46.21389" lon="7.4476"><ele>1754</ele><time>2016-07-31T14:05:38Z</time></trkpt>
<trkpt lat="46.21386" lon="7.44767"><ele>1754.2</ele><time>2016-07-31T14:05:43Z</time></trkpt>
<trkpt lat="46.21381" lon="7.44775"><ele>1754.8</ele><time>2016-07-31T14:05:50Z</time></trkpt>
<trkpt lat="46.21365" lon="7.44791"><ele>1756</ele><time>2016-07-31T14:06:04Z</time></trkpt>
<trkpt lat="46.2135" lon="7.44802"><ele>1757.4</ele><time>2016-07-31T14:06:17Z</time></trkpt>
<trkpt lat="46.21342" lon="7.44808"><ele>1757.8</ele><time>2016-07-31T14:06:23Z</time></trkpt>
<trkpt lat="46.21334" lon="7.44816"><ele>1757.8</ele><time>2016-07-31T14:06:30Z</time></trkpt>
<trkpt lat="46.21328" lon="7.44826"><ele>1757.8</ele><time>2016-07-31T14:06:36Z</time></trkpt>
<trkpt lat="46.21321" lon="7.44851"><ele>1757.2</ele><time>2016-07-31T14:06:48Z</time></trkpt>
<trkpt lat="46.21312" lon="7.44874"><ele>1758.4</ele><time>2016-07-31T14:06:59Z</time></trkpt>
<trkpt lat="46.21304" lon="7.44891"><ele>1759</ele><time>2016-07-31T14:07:09Z</time></trkpt>
<trkpt lat="46.2129" lon="7.44908"><ele>1759.6</ele><time>2016-07-31T14:07:23Z</time></trkpt>
<trkpt lat="46.21282" lon="7.44915"><ele>1760.4</ele><time>2016-07-31T14:07:30Z</time></trkpt>
<trkpt lat="46.21277" lon="7.4492"><ele>1761.8</ele><time>2016-07-31T14:07:36Z</time></trkpt>
<trkpt lat="46.21265" lon="7.44937"><ele>1765</ele><time>2016-07-31T14:07:48Z</time></trkpt>
<trkpt lat="46.21261" lon="7.44943"><ele>1765.6</ele><time>2016-07-31T14:07:52Z</time></trkpt>
<trkpt lat="46.2126" lon="7.44945"><ele>1766</ele><time>2016-07-31T14:07:53Z</time></trkpt>
<trkpt lat="46.21241" lon="7.44967"><ele>1768.4</ele><time>2016-07-31T14:08:10Z</time></trkpt>
<trkpt lat="46.21225" lon="7.44976"><ele>1770.8</ele><time>2016-07-31T14:08:21Z</time></trkpt>
<trkpt lat="46.21211" lon="7.44982"><ele>1772.4</ele><time>2016-07-31T14:08:31Z</time></trkpt>
<trkpt lat="46.21197" lon="7.44993"><ele>1774</ele><time>2016-07-31T14:08:42Z</time></trkpt>
<trkpt lat="46.21193" lon="7.44996"><ele>1774.6</ele><time>2016-07-31T14:08:46Z</time></trkpt>
<trkpt lat="46.21178" lon="7.45002"><ele>1775.6</ele><time>2016-07-31T14:08:57Z</time></trkpt>
<trkpt lat="46.21156" lon="7.45017"><ele>1775.6</ele><time>2016-07-31T14:09:14Z</time></trkpt>
<trkpt lat="46.21154" lon="7.45019"><ele>1775.8</ele><time>2016-07-31T14:09:16Z</time></trkpt>
<trkpt lat="46.21145" lon="7.4503"><ele>1775.4</ele><time>2016-07-31T14:09:25Z</time></trkpt>
<trkpt lat="46.2113" lon="7.45046"><ele>1773.6</ele><time>2016-07-31T14:09:40Z</time></trkpt>
<trkpt lat="46.21113" lon="7.45056"><ele>1773.8</ele><time>2016-07-31T14:09:54Z</time></trkpt>
<trkpt lat="46.21109" lon="7.45058"><ele>1774</ele><time>2016-07-31T14:09:57Z</time></trkpt>
<trkpt lat="46.21103" lon="7.4506"><ele>1774.2</ele><time>2016-07-31T14:10:02Z</time></trkpt>
<trkpt lat="46.21087" lon="7.45073"><ele>1774.6</ele><time>2016-07-31T14:10:15Z</time></trkpt>
<trkpt lat="46.21077" lon="7.45081"><ele>1774.8</ele><time>2016-07-31T14:10:23Z</time></trkpt>
<trkpt lat="46.21066" lon="7.45093"><ele>1775.6</ele><time>2016-07-31T14:10:33Z</time></trkpt>
<trkpt lat="46.2105" lon="7.45108"><ele>1777.6</ele><time>2016-07-31T14:10:47Z</time></trkpt>
<trkpt lat="46.21044" lon="7.45112"><ele>1778</ele><time>2016-07-31T14:10:52Z</time></trkpt>
<trkpt lat="46.21027" lon="7.45121"><ele>1779.2</ele><time>2016-07-31T14:11:06Z</time></trkpt>
<trkpt lat="46.21024" lon="7.45123"><ele>1779.4</ele><time>2016-07-31T14:11:08Z</time></trkpt>
<trkpt lat="46.21007" lon="7.45132"><ele>1781.2</ele><time>2016-07-31T14:11:23Z</time></trkpt>
<trkpt lat="46.20989" lon="7.45136"><ele>1783.2</ele><time>2016-07-31T14:11:36Z</time></trkpt>
<trkpt lat="46.20988" lon="7.45137"><ele>1783.4</ele><time>2016-07-31T14:11:37Z</time></trkpt>
<trkpt lat="46.2097" lon="7.45138"><ele>1785.2</ele><time>2016-07-31T14:11:50Z</time></trkpt>
<trkpt lat="46.20968" lon="7.45137"><ele>1785.4</ele><time>2016-07-31T14:11:51Z</time></trkpt>
<trkpt lat="46.20943" lon="7.45141"><ele>1786.4</ele><time>2016-07-31T14:12:09Z</time></trkpt>
<trkpt lat="46.20932" lon="7.45141"><ele>1787.2</ele><time>2016-07-31T14:12:18Z</time></trkpt>
<trkpt lat="46.20929" lon="7.45142"><ele>1787.6</ele><time>2016-07-31T14:12:21Z</time></trkpt>
<trkpt lat="46.20922" lon="7.45144"><ele>1788.2</ele><time>2016-07-31T14:12:26Z</time></trkpt>
<trkpt lat="46.20913" lon="7.45146"><ele>1789.6</ele><time>2016-07-31T14:12:34Z</time></trkpt>
<trkpt lat="46.20894" lon="7.45147"><ele>1791</ele><time>2016-07-31T14:12:47Z</time></trkpt>
<trkpt lat="46.20888" lon="7.45147"><ele>1791.2</ele><time>2016-07-31T14:12:52Z</time></trkpt>
<trkpt lat="46.2087" lon="7.45149"><ele>1791.4</ele><time>2016-07-31T14:13:07Z</time></trkpt>
<trkpt lat="46.20851" lon="7.45153"><ele>1790.8</ele><time>2016-07-31T14:13:20Z</time></trkpt>
<trkpt lat="46.20832" lon="7.45156"><ele>1791</ele><time>2016-07-31T14:13:32Z</time></trkpt>
<trkpt lat="46.20814" lon="7.45148"><ele>1792.8</ele><time>2016-07-31T14:13:46Z</time></trkpt>
<trkpt lat="46.20811" lon="7.45147"><ele>1793</ele><time>2016-07-31T14:13:49Z</time></trkpt>
<trkpt lat="46.20803" lon="7.45144"><ele>1794</ele><time>2016-07-31T14:13:56Z</time></trkpt>
<trkpt lat="46.20794" lon="7.45143"><ele>1794.6</ele><time>2016-07-31T14:14:03Z</time></trkpt>
<trkpt lat="46.20776" lon="7.45141"><ele>1795.8</ele><time>2016-07-31T14:14:18Z</time></trkpt>
<trkpt lat="46.20769" lon="7.45141"><ele>1796</ele><time>2016-07-31T14:14:24Z</time></trkpt>
<trkpt lat="46.2076" lon="7.4514"><ele>1795.6</ele><time>2016-07-31T14:14:29Z</time></trkpt>
<trkpt lat="46.20741" lon="7.45144"><ele>1796.4</ele><time>2016-07-31T14:14:42Z</time></trkpt>
<trkpt lat="46.20723" lon="7.4515"><ele>1798.8</ele><time>2016-07-31T14:14:56Z</time></trkpt>
<trkpt lat="46.20704" lon="7.45151"><ele>1800.4</ele><time>2016-07-31T14:15:11Z</time></trkpt>
<trkpt lat="46.20695" lon="7.45151"><ele>1801</ele><time>2016-07-31T14:15:17Z</time></trkpt>
<trkpt lat="46.20691" lon="7.45152"><ele>1801.2</ele><time>2016-07-31T14:15:20Z</time></trkpt>
<trkpt lat="46.20669" lon="7.45165"><ele>1805.8</ele><time>2016-07-31T14:15:36Z</time></trkpt>
<trkpt lat="46.20654" lon="7.45176"><ele>1808.8</ele><time>2016-07-31T14:15:48Z</time></trkpt>
<trkpt lat="46.20636" lon="7.45185"><ele>1811.2</ele><time>2016-07-31T14:16:01Z</time></trkpt>
<trkpt lat="46.20623" lon="7.4519"><ele>1813</ele><time>2016-07-31T14:16:11Z</time></trkpt>
<trkpt lat="46.20621" lon="7.45191"><ele>1813.2</ele><time>2016-07-31T14:16:13Z</time></trkpt>
<trkpt lat="46.20615" lon="7.45192"><ele>1814</ele><time>2016-07-31T14:16:18Z</time></trkpt>
<trkpt lat="46.20603" lon="7.45196"><ele>1815.4</ele><time>2016-07-31T14:16:27Z</time></trkpt>
<trkpt lat="46.20585" lon="7.45195"><ele>1818</ele><time>2016-07-31T14:16:42Z</time></trkpt>
<trkpt lat="46.20562" lon="7.45187"><ele>1820.6</ele><time>2016-07-31T14:16:58Z</time></trkpt>
<trkpt lat="46.20543" lon="7.45188"><ele>1822.4</ele><time>2016-07-31T14:17:12Z</time></trkpt>
<trkpt lat="46.20537" lon="7.45189"><ele>1823.4</ele><time>2016-07-31T14:17:17Z</time></trkpt>
<trkpt lat="46.20536" lon="7.45188"><ele>1823.4</ele><time>2016-07-31T14:17:18Z</time></trkpt>
<trkpt lat="46.20532" lon="7.45187"><ele>1823.8</ele><time>2016-07-31T14:17:21Z</time></trkpt>
<trkpt lat="46.20514" lon="7.45182"><ele>1825.8</ele><time>2016-07-31T14:17:34Z</time></trkpt>
<trkpt lat="46.20495" lon="7.45176"><ele>1828.6</ele><time>2016-07-31T14:17:48Z</time></trkpt>
<trkpt lat="46.20486" lon="7.45176"><ele>1829.2</ele><time>2016-07-31T14:17:55Z</time></trkpt>
<trkpt lat="46.20468" lon="7.45179"><ele>1830.4</ele><time>2016-07-31T14:18:08Z</time></trkpt>
<trkpt lat="46.20455" lon="7.45182"><ele>1832</ele><time>2016-07-31T14:18:18Z</time></trkpt>
<trkpt lat="46.20436" lon="7.45183"><ele>1833.8</ele><time>2016-07-31T14:18:32Z</time></trkpt>
<trkpt lat="46.20423" lon="7.45186"><ele>1834.4</ele><time>2016-07-31T14:18:42Z</time></trkpt>
<trkpt lat="46.20406" lon="7.45192"><ele>1835.6</ele><time>2016-07-31T14:18:55Z</time></trkpt>
<trkpt lat="46.20393" lon="7.45195"><ele>1836.4</ele><time>2016-07-31T14:19:05Z</time></trkpt>
<trkpt lat="46.20385" lon="7.45196"><ele>1837.8</ele><time>2016-07-31T14:19:13Z</time></trkpt>
<trkpt lat="46.20378" lon="7.45198"><ele>1839.4</ele><time>2016-07-31T14:19:19Z</time></trkpt>
<trkpt lat="46.20369" lon="7.45203"><ele>1841.6</ele><time>2016-07-31T14:19:28Z</time></trkpt>
<trkpt lat="46.20369" lon="7.45217"><ele>1843.2</ele><time>2016-07-31T14:19:38Z</time></trkpt>
<trkpt lat="46.2037" lon="7.45218"><ele>1843.4</ele><time>2016-07-31T14:19:39Z</time></trkpt>
<trkpt lat="46.20388" lon="7.45218"><ele>1844.8</ele><time>2016-07-31T14:19:52Z</time></trkpt>
<trkpt lat="46.20406" lon="7.45222"><ele>1847.2</ele><time>2016-07-31T14:20:04Z</time></trkpt>
<trkpt lat="46.20424" lon="7.45245"><ele>1850.2</ele><time>2016-07-31T14:20:18Z</time></trkpt>
<trkpt lat="46.20434" lon="7.45258"><ele>1851.6</ele><time>2016-07-31T14:20:27Z</time></trkpt>
<trkpt lat="46.20448" lon="7.45278"><ele>1853.4</ele><time>2016-07-31T14:20:38Z</time></trkpt>
<trkpt lat="46.20454" lon="7.45286"><ele>1855</ele><time>2016-07-31T14:20:42Z</time></trkpt>
<trkpt lat="46.20462" lon="7.45299"><ele>1857.2</ele><time>2016-07-31T14:20:48Z</time></trkpt>
<trkpt lat="46.20478" lon="7.45311"><ele>1858.8</ele><time>2016-07-31T14:20:58Z</time></trkpt>
<trkpt lat="46.20496" lon="7.45308"><ele>1862.2</ele><time>2016-07-31T14:21:07Z</time></trkpt>
<trkpt lat="46.20514" lon="7.45303"><ele>1864.6</ele><time>2016-07-31T14:21:15Z</time></trkpt>
<trkpt lat="46.20521" lon="7.45303"><ele>1865.2</ele><time>2016-07-31T14:21:18Z</time></trkpt>
<trkpt lat="46.20541" lon="7.45306"><ele>1869.2</ele><time>2016-07-31T14:21:27Z</time></trkpt>
<trkpt lat="46.20561" lon="7.45309"><ele>1873.8</ele><time>2016-07-31T14:21:35Z</time></trkpt>
<trkpt lat="46.20582" lon="7.4531"><ele>1877.6</ele><time>2016-07-31T14:21:44Z</time></trkpt>
<trkpt lat="46.20601" lon="7.45312"><ele>1883.8</ele><time>2016-07-31T14:21:51Z</time></trkpt>
<trkpt lat="46.2062" lon="7.45308"><ele>1880</ele><time>2016-07-31T14:21:59Z</time></trkpt>
<trkpt lat="46.20638" lon="7.45306"><ele>1880.8</ele><time>2016-07-31T14:22:06Z</time></trkpt>
<trkpt lat="46.20645" lon="7.45306"><ele>1881.6</ele><time>2016-07-31T14:22:09Z</time></trkpt>
<trkpt lat="46.20663" lon="7.4531"><ele>1881.6</ele><time>2016-07-31T14:22:16Z</time></trkpt>
<trkpt lat="46.20682" lon="7.45312"><ele>1883.4</ele><time>2016-07-31T14:22:24Z</time></trkpt>
<trkpt lat="46.207" lon="7.45318"><ele>1885.8</ele><time>2016-07-31T14:22:33Z</time></trkpt>
<trkpt lat="46.20722" lon="7.45325"><ele>1889.2</ele><time>2016-07-31T14:22:43Z</time></trkpt>
<trkpt lat="46.20741" lon="7.45329"><ele>1892.8</ele><time>2016-07-31T14:22:51Z</time></trkpt>
<trkpt lat="46.2076" lon="7.45334"><ele>1893.6</ele><time>2016-07-31T14:23:00Z</time></trkpt>
<trkpt lat="46.20778" lon="7.45342"><ele>1893.6</ele><time>2016-07-31T14:23:07Z</time></trkpt>
<trkpt lat="46.20791" lon="7.45359"><ele>1893.4</ele><time>2016-07-31T14:23:14Z</time></trkpt>
<trkpt lat="46.20798" lon="7.45386"><ele>1888.4</ele><time>2016-07-31T14:23:21Z</time></trkpt>
<trkpt lat="46.20811" lon="7.45404"><ele>1891</ele><time>2016-07-31T14:23:28Z</time></trkpt>
<trkpt lat="46.2083" lon="7.45405"><ele>1893.6</ele><time>2016-07-31T14:23:35Z</time></trkpt>
<trkpt lat="46.2085" lon="7.45403"><ele>1894.4</ele><time>2016-07-31T14:23:43Z</time></trkpt>
<trkpt lat="46.20873" lon="7.45411"><ele>1898.4</ele><time>2016-07-31T14:23:52Z</time></trkpt>
<trkpt lat="46.20891" lon="7.45408"><ele>1901.8</ele><time>2016-07-31T14:24:00Z</time></trkpt>
<trkpt lat="46.20908" lon="7.45398"><ele>1898.4</ele><time>2016-07-31T14:24:08Z</time></trkpt>
<trkpt lat="46.20923" lon="7.4539"><ele>1899.4</ele><time>2016-07-31T14:24:15Z</time></trkpt>
<trkpt lat="46.20942" lon="7.45385"><ele>1899.8</ele><time>2016-07-31T14:24:22Z</time></trkpt>
<trkpt lat="46.20961" lon="7.45392"><ele>1901.6</ele><time>2016-07-31T14:24:29Z</time></trkpt>
<trkpt lat="46.20976" lon="7.45408"><ele>1902.6</ele><time>2016-07-31T14:24:40Z</time></trkpt>
<trkpt lat="46.20981" lon="7.45415"><ele>1903.4</ele><time>2016-07-31T14:24:45Z</time></trkpt>
<trkpt lat="46.20986" lon="7.45419"><ele>1903.8</ele><time>2016-07-31T14:24:49Z</time></trkpt>
<trkpt lat="46.20991" lon="7.45423"><ele>1904.2</ele><time>2016-07-31T14:24:53Z</time></trkpt>
<trkpt lat="46.21" lon="7.45425"><ele>1905</ele><time>2016-07-31T14:24:59Z</time></trkpt>
<trkpt lat="46.21008" lon="7.45425"><ele>1904.2</ele><time>2016-07-31T14:25:04Z</time></trkpt>
<trkpt lat="46.21018" lon="7.45423"><ele>1903.4</ele><time>2016-07-31T14:25:11Z</time></trkpt>
<trkpt lat="46.21021" lon="7.45422"><ele>1902.8</ele><time>2016-07-31T14:25:13Z</time></trkpt>
<trkpt lat="46.21034" lon="7.45419"><ele>1903</ele><time>2016-07-31T14:25:22Z</time></trkpt>
<trkpt lat="46.21051" lon="7.45415"><ele>1903.2</ele><time>2016-07-31T14:25:33Z</time></trkpt>
<trkpt lat="46.21061" lon="7.45414"><ele>1902.4</ele><time>2016-07-31T14:25:39Z</time></trkpt>
<trkpt lat="46.21077" lon="7.45412"><ele>1901.6</ele><time>2016-07-31T14:25:48Z</time></trkpt>
<trkpt lat="46.21091" lon="7.45407"><ele>1902.2</ele><time>2016-07-31T14:25:57Z</time></trkpt>
<trkpt lat="46.21105" lon="7.45405"><ele>1900.8</ele><time>2016-07-31T14:26:06Z</time></trkpt>
<trkpt lat="46.21112" lon="7.45406"><ele>1901</ele><time>2016-07-31T14:26:11Z</time></trkpt>
<trkpt lat="46.21127" lon="7.4541"><ele>1902</ele><time>2016-07-31T14:26:22Z</time></trkpt>
<trkpt lat="46.21145" lon="7.45417"><ele>1902.4</ele><time>2016-07-31T14:26:37Z</time></trkpt>
<trkpt lat="46.21163" lon="7.4542"><ele>1903.4</ele><time>2016-07-31T14:26:50Z</time></trkpt>
<trkpt lat="46.21178" lon="7.45425"><ele>1904</ele><time>2016-07-31T14:26:58Z</time></trkpt>
<trkpt lat="46.2118" lon="7.45427"><ele>1904.2</ele><time>2016-07-31T14:26:59Z</time></trkpt>
<trkpt lat="46.21182" lon="7.45428"><ele>1904.4</ele><time>2016-07-31T14:27:00Z</time></trkpt>
<trkpt lat="46.21202" lon="7.45431"><ele>1906.2</ele><time>2016-07-31T14:27:09Z</time></trkpt>
<trkpt lat="46.21228" lon="7.45428"><ele>1908.8</ele><time>2016-07-31T14:27:20Z</time></trkpt>
<trkpt lat="46.21245" lon="7.45437"><ele>1910.6</ele><time>2016-07-31T14:27:28Z</time></trkpt>
<trkpt lat="46.21264" lon="7.45451"><ele>1912.4</ele><time>2016-07-31T14:27:36Z</time></trkpt>
<trkpt lat="46.21284" lon="7.45449"><ele>1914.2</ele><time>2016-07-31T14:27:44Z</time></trkpt>
<trkpt lat="46.21295" lon="7.45442"><ele>1915.8</ele><time>2016-07-31T14:27:48Z</time></trkpt>
<trkpt lat="46.21302" lon="7.4544"><ele>1916.2</ele><time>2016-07-31T14:27:50Z</time></trkpt>
<trkpt lat="46.21322" lon="7.45434"><ele>1918</ele><time>2016-07-31T14:27:56Z</time></trkpt>
<trkpt lat="46.21341" lon="7.45433"><ele>1920.6</ele><time>2016-07-31T14:28:03Z</time></trkpt>
<trkpt lat="46.21352" lon="7.45433"><ele>1921.8</ele><time>2016-07-31T14:28:07Z</time></trkpt>
<trkpt lat="46.21358" lon="7.45431"><ele>1922.4</ele><time>2016-07-31T14:28:09Z</time></trkpt>
<trkpt lat="46.21373" lon="7.45416"><ele>1923.4</ele><time>2016-07-31T14:28:16Z</time></trkpt>
<trkpt lat="46.21386" lon="7.45409"><ele>1925</ele><time>2016-07-31T14:28:26Z</time></trkpt>
<trkpt lat="46.21399" lon="7.45411"><ele>1926.4</ele><time>2016-07-31T14:28:34Z</time></trkpt>
<trkpt lat="46.21404" lon="7.45414"><ele>1926.8</ele><time>2016-07-31T14:28:37Z</time></trkpt>
<trkpt lat="46.21423" lon="7.45421"><ele>1926.8</ele><time>2016-07-31T14:28:49Z</time></trkpt>
<trkpt lat="46.21437" lon="7.45422"><ele>1928.2</ele><time>2016-07-31T14:28:58Z</time></trkpt>
<trkpt lat="46.21444" lon="7.45423"><ele>1928.8</ele><time>2016-07-31T14:29:03Z</time></trkpt>
<trkpt lat="46.21457" lon="7.45424"><ele>1931</ele><time>2016-07-31T14:29:12Z</time></trkpt>
<trkpt lat="46.21462" lon="7.45424"><ele>1933.6</ele><time>2016-07-31T14:29:16Z</time></trkpt>
<trkpt lat="46.21471" lon="7.45425"><ele>1935.6</ele><time>2016-07-31T14:29:23Z</time></trkpt>
<trkpt lat="46.21476" lon="7.45426"><ele>1935.2</ele><time>2016-07-31T14:29:26Z</time></trkpt>
<trkpt lat="46.21486" lon="7.45427"><ele>1936</ele><time>2016-07-31T14:29:34Z</time></trkpt>
<trkpt lat="46.21502" lon="7.45441"><ele>1937</ele><time>2016-07-31T14:29:46Z</time></trkpt>
<trkpt lat="46.21512" lon="7.45454"><ele>1936.6</ele><time>2016-07-31T14:29:55Z</time></trkpt>
<trkpt lat="46.21514" lon="7.45458"><ele>1936.4</ele><time>2016-07-31T14:29:58Z</time></trkpt>
<trkpt lat="46.21515" lon="7.45459"><ele>1936.2</ele><time>2016-07-31T14:29:59Z</time></trkpt>
<trkpt lat="46.21518" lon="7.45462"><ele>1936.4</ele><time>2016-07-31T14:30:02Z</time></trkpt>
<trkpt lat="46.21522" lon="7.45467"><ele>1936.4</ele><time>2016-07-31T14:30:06Z</time></trkpt>
<trkpt lat="46.21537" lon="7.45487"><ele>1936.6</ele><time>2016-07-31T14:30:20Z</time></trkpt>
<trkpt lat="46.21551" lon="7.45511"><ele>1937.8</ele><time>2016-07-31T14:30:26Z</time></trkpt>
<trkpt lat="46.2157" lon="7.45516"><ele>1939.4</ele><time>2016-07-31T14:30:31Z</time></trkpt>
<trkpt lat="46.21579" lon="7.45511"><ele>1940.2</ele><time>2016-07-31T14:30:34Z</time></trkpt>
<trkpt lat="46.21594" lon="7.45508"><ele>1940.6</ele><time>2016-07-31T14:30:38Z</time></trkpt>
<trkpt lat="46.21613" lon="7.45514"><ele>1941.8</ele><time>2016-07-31T14:30:42Z</time></trkpt>
<trkpt lat="46.21622" lon="7.45519"><ele>1942</ele><time>2016-07-31T14:30:44Z</time></trkpt>
<trkpt lat="46.21626" lon="7.45539"><ele>1943</ele><time>2016-07-31T14:30:56Z</time></trkpt>
<trkpt lat="46.21621" lon="7.45539"><ele>1943.8</ele><time>2016-07-31T14:31:00Z</time></trkpt>
<trkpt lat="46.21618" lon="7.45538"><ele>1944</ele><time>2016-07-31T14:31:02Z</time></trkpt>
<trkpt lat="46.21613" lon="7.45536"><ele>1944.4</ele><time>2016-07-31T14:31:05Z</time></trkpt>
<trkpt lat="46.21603" lon="7.45535"><ele>1944.6</ele><time>2016-07-31T14:31:11Z</time></trkpt>
<trkpt lat="46.21599" lon="7.45534"><ele>1944.8</ele><time>2016-07-31T14:31:13Z</time></trkpt>
<trkpt lat="46.21589" lon="7.45534"><ele>1944.6</ele><time>2016-07-31T14:31:18Z</time></trkpt>
<trkpt lat="46.21583" lon="7.45535"><ele>1944.8</ele><time>2016-07-31T14:31:21Z</time></trkpt>
<trkpt lat="46.21565" lon="7.45546"><ele>1943.8</ele><time>2016-07-31T14:31:31Z</time></trkpt>
<trkpt lat="46.21564" lon="7.45548"><ele>1943.8</ele><time>2016-07-31T14:31:32Z</time></trkpt>
<trkpt lat="46.21558" lon="7.45552"><ele>1943.2</ele><time>2016-07-31T14:31:35Z</time></trkpt>
<trkpt lat="46.2154" lon="7.45554"><ele>1943.6</ele><time>2016-07-31T14:31:45Z</time></trkpt>
<trkpt lat="46.21514" lon="7.45537"><ele>1944.4</ele><time>2016-07-31T14:31:57Z</time></trkpt>
<trkpt lat="46.21503" lon="7.45528"><ele>1945.6</ele><time>2016-07-31T14:32:02Z</time></trkpt>
<trkpt lat="46.2149" lon="7.45518"><ele>1945</ele><time>2016-07-31T14:32:08Z</time></trkpt>
<trkpt lat="46.21485" lon="7.45515"><ele>1944.8</ele><time>2016-07-31T14:32:10Z</time></trkpt>
<trkpt lat="46.21479" lon="7.45511"><ele>1945</ele><time>2016-07-31T14:32:13Z</time></trkpt>
<trkpt lat="46.21473" lon="7.45507"><ele>1945.4</ele><time>2016-07-31T14:32:16Z</time></trkpt>
<trkpt lat="46.21459" lon="7.45495"><ele>1947</ele><time>2016-07-31T14:32:24Z</time></trkpt>
<trkpt lat="46.21444" lon="7.45489"><ele>1948.6</ele><time>2016-07-31T14:32:31Z</time></trkpt>
<trkpt lat="46.21425" lon="7.45488"><ele>1948.6</ele><time>2016-07-31T14:32:39Z</time></trkpt>
<trkpt lat="46.21401" lon="7.45497"><ele>1944.6</ele><time>2016-07-31T14:32:48Z</time></trkpt>
<trkpt lat="46.21383" lon="7.45501"><ele>1947</ele><time>2016-07-31T14:32:56Z</time></trkpt>
<trkpt lat="46.21363" lon="7.45502"><ele>1947.4</ele><time>2016-07-31T14:33:05Z</time></trkpt>
<trkpt lat="46.21345" lon="7.45506"><ele>1944</ele><time>2016-07-31T14:33:12Z</time></trkpt>
<trkpt lat="46.21342" lon="7.45507"><ele>1943.6</ele><time>2016-07-31T14:33:13Z</time></trkpt>
<trkpt lat="46.21324" lon="7.45516"><ele>1940.2</ele><time>2016-07-31T14:33:20Z</time></trkpt>
<trkpt lat="46.21306" lon="7.45522"><ele>1938.8</ele><time>2016-07-31T14:33:26Z</time></trkpt>
<trkpt lat="46.21295" lon="7.45525"><ele>1939</ele><time>2016-07-31T14:33:30Z</time></trkpt>
<trkpt lat="46.21275" lon="7.45531"><ele>1942.8</ele><time>2016-07-31T14:33:39Z</time></trkpt>
<trkpt lat="46.21256" lon="7.45534"><ele>1944.4</ele><time>2016-07-31T14:33:48Z</time></trkpt>
<trkpt lat="46.2125" lon="7.45537"><ele>1945.2</ele><time>2016-07-31T14:33:51Z</time></trkpt>
<trkpt lat="46.21247" lon="7.45537"><ele>1945.4</ele><time>2016-07-31T14:33:52Z</time></trkpt>
<trkpt lat="46.21223" lon="7.45544"><ele>1946</ele><time>2016-07-31T14:34:02Z</time></trkpt>
<trkpt lat="46.21204" lon="7.45553"><ele>1947</ele><time>2016-07-31T14:34:11Z</time></trkpt>
<trkpt lat="46.21187" lon="7.45561"><ele>1949.8</ele><time>2016-07-31T14:34:20Z</time></trkpt>
<trkpt lat="46.21167" lon="7.45556"><ele>1951.4</ele><time>2016-07-31T14:34:29Z</time></trkpt>
<trkpt lat="46.21149" lon="7.45545"><ele>1952.8</ele><time>2016-07-31T14:34:38Z</time></trkpt>
<trkpt lat="46.2113" lon="7.45542"><ele>1953.6</ele><time>2016-07-31T14:34:47Z</time></trkpt>
<trkpt lat="46.21112" lon="7.45545"><ele>1955.4</ele><time>2016-07-31T14:34:58Z</time></trkpt>
<trkpt lat="46.21099" lon="7.45549"><ele>1957</ele><time>2016-07-31T14:35:09Z</time></trkpt>
<trkpt lat="46.21096" lon="7.45549"><ele>1957.2</ele><time>2016-07-31T14:35:11Z</time></trkpt>
<trkpt lat="46.21088" lon="7.45553"><ele>1956.8</ele><time>2016-07-31T14:35:17Z</time></trkpt>
<trkpt lat="46.21079" lon="7.4556"><ele>1954.6</ele><time>2016-07-31T14:35:38Z</time></trkpt>
<trkpt lat="46.21081" lon="7.45561"><ele>1954.4</ele><time>2016-07-31T14:35:55Z</time></trkpt>
<trkpt lat="46.21083" lon="7.45565"><ele>1955</ele><time>2016-07-31T14:36:17Z</time></trkpt>
<trkpt lat="46.21084" lon="7.45567"><ele>1955.2</ele><time>2016-07-31T14:36:32Z</time></trkpt>
<trkpt lat="46.21084" lon="7.45568"><ele>1955.6</ele><time>2016-07-31T14:36:53Z</time></trkpt>
<trkpt lat="46.21085" lon="7.45568"><ele>1956</ele><time>2016-07-31T14:37:03Z</time></trkpt>
<trkpt lat="46.21085" lon="7.45567"><ele>1956.2</ele><time>2016-07-31T14:37:04Z</time></trkpt>
<trkpt lat="46.21084" lon="7.45566"><ele>1956.6</ele><time>2016-07-31T14:37:15Z</time></trkpt>
<trkpt lat="46.21083" lon="7.45564"><ele>1956.8</ele><time>2016-07-31T14:37:39Z</time></trkpt>
<trkpt lat="46.21084" lon="7.45564"><ele>1956.8</ele><time>2016-07-31T14:38:07Z</time></trkpt>
<trkpt lat="46.21085" lon="7.45564"><ele>1956.8</ele><time>2016-07-31T14:38:15Z</time></trkpt>
<trkpt lat="46.21085" lon="7.45565"><ele>1956.6</ele><time>2016-07-31T14:38:21Z</time></trkpt>
<trkpt lat="46.21085" lon="7.45565"><ele>1956.6</ele><time>2016-07-31T14:38:22Z</time></trkpt>
<trkpt lat="46.21085" lon="7.45566"><ele>1956.6</ele><time>2016-07-31T14:38:23Z</time></trkpt>
<trkpt lat="46.21085" lon="7.45566"><ele>1956.6</ele><time>2016-07-31T14:38:24Z</time></trkpt>
<trkpt lat="46.21085" lon="7.45566"><ele>1956.6</ele><time>2016-07-31T14:38:26Z</time></trkpt>
<trkpt lat="46.21086" lon="7.45569"><ele>1957.2</ele><time>2016-07-31T14:38:52Z</time></trkpt>
<trkpt lat="46.21086" lon="7.4557"><ele>1957.2</ele><time>2016-07-31T14:38:53Z</time></trkpt>
<trkpt lat="46.21086" lon="7.45567"><ele>1957</ele><time>2016-07-31T14:39:08Z</time></trkpt>
<trkpt lat="46.21085" lon="7.45567"><ele>1957</ele><time>2016-07-31T14:39:10Z</time></trkpt>
<trkpt lat="46.21085" lon="7.45565"><ele>1957</ele><time>2016-07-31T14:39:15Z</time></trkpt>
<trkpt lat="46.21083" lon="7.45565"><ele>1956.8</ele><time>2016-07-31T14:39:29Z</time></trkpt>
<trkpt lat="46.21083" lon="7.45565"><ele>1956.4</ele><time>2016-07-31T14:39:40Z</time></trkpt>
<trkpt lat="46.21084" lon="7.45566"><ele>1956.4</ele><time>2016-07-31T14:39:51Z</time></trkpt>
<trkpt lat="46.21084" lon="7.45566"><ele>1956.4</ele><time>2016-07-31T14:39:56Z</time></trkpt>
<trkpt lat="46.21084" lon="7.45566"><ele>1956.2</ele><time>2016-07-31T14:40:05Z</time></trkpt>
<trkpt lat="46.21084" lon="7.45566"><ele>1956.2</ele><time>2016-07-31T14:40:11Z</time></trkpt>
<trkpt lat="46.21085" lon="7.45566"><ele>1956.2</ele><time>2016-07-31T14:40:12Z</time></trkpt>
<trkpt lat="46.21085" lon="7.45567"><ele>1956.2</ele><time>2016-07-31T14:40:13Z</time></trkpt>
<trkpt lat="46.21082" lon="7.4556"><ele>1956.4</ele><time>2016-07-31T14:40:20Z</time></trkpt>
<trkpt lat="46.21082" lon="7.4556"><ele>1956.4</ele><time>2016-07-31T14:40:22Z</time></trkpt>
<trkpt lat="46.21082" lon="7.45559"><ele>1956.4</ele><time>2016-07-31T14:40:25Z</time></trkpt>
<trkpt lat="46.2108" lon="7.45562"><ele>1956.6</ele><time>2016-07-31T14:40:37Z</time></trkpt>
<trkpt lat="46.2108" lon="7.45562"><ele>1956.6</ele><time>2016-07-31T14:40:40Z</time></trkpt>
<trkpt lat="46.2108" lon="7.45561"><ele>1956.6</ele><time>2016-07-31T14:40:46Z</time></trkpt>
<trkpt lat="46.21076" lon="7.45559"><ele>1956.4</ele><time>2016-07-31T14:40:54Z</time></trkpt>
<trkpt lat="46.21058" lon="7.45563"><ele>1956.4</ele><time>2016-07-31T14:41:06Z</time></trkpt>
<trkpt lat="46.21046" lon="7.45564"><ele>1956.2</ele><time>2016-07-31T14:41:13Z</time></trkpt>
<trkpt lat="46.21026" lon="7.45566"><ele>1955.8</ele><time>2016-07-31T14:41:23Z</time></trkpt>
<trkpt lat="46.21021" lon="7.45567"><ele>1955.6</ele><time>2016-07-31T14:41:25Z</time></trkpt>
<trkpt lat="46.21003" lon="7.4557"><ele>1954.6</ele><time>2016-07-31T14:41:31Z</time></trkpt>
<trkpt lat="46.20984" lon="7.45571"><ele>1953.2</ele><time>2016-07-31T14:41:36Z</time></trkpt>
<trkpt lat="46.20963" lon="7.45574"><ele>1952</ele><time>2016-07-31T14:41:41Z</time></trkpt>
<trkpt lat="46.20943" lon="7.45574"><ele>1950.6</ele><time>2016-07-31T14:41:46Z</time></trkpt>
<trkpt lat="46.20939" lon="7.45574"><ele>1950.2</ele><time>2016-07-31T14:41:47Z</time></trkpt>
<trkpt lat="46.20934" lon="7.45575"><ele>1950.2</ele><time>2016-07-31T14:41:48Z</time></trkpt>
<trkpt lat="46.2093" lon="7.45574"><ele>1950</ele><time>2016-07-31T14:41:49Z</time></trkpt>
<trkpt lat="46.20925" lon="7.45574"><ele>1949.8</ele><time>2016-07-31T14:41:50Z</time></trkpt>
<trkpt lat="46.20921" lon="7.45573"><ele>1949.6</ele><time>2016-07-31T14:41:51Z</time></trkpt>
<trkpt lat="46.20903" lon="7.45573"><ele>1949</ele><time>2016-07-31T14:41:55Z</time></trkpt>
<trkpt lat="46.20885" lon="7.45568"><ele>1948</ele><time>2016-07-31T14:41:59Z</time></trkpt>
<trkpt lat="46.2088" lon="7.45567"><ele>1947.8</ele><time>2016-07-31T14:42:00Z</time></trkpt>
<trkpt lat="46.2087" lon="7.4556"><ele>1945.8</ele><time>2016-07-31T14:42:03Z</time></trkpt>
<trkpt lat="46.20855" lon="7.45563"><ele>1942.4</ele><time>2016-07-31T14:42:09Z</time></trkpt>
<trkpt lat="46.20855" lon="7.45563"><ele>1943.4</ele><time>2016-07-31T14:42:14Z</time></trkpt>
<trkpt lat="46.20854" lon="7.45565"><ele>1942.4</ele><time>2016-07-31T14:42:23Z</time></trkpt>
<trkpt lat="46.20846" lon="7.45572"><ele>1941</ele><time>2016-07-31T14:42:34Z</time></trkpt>
<trkpt lat="46.20842" lon="7.45574"><ele>1941.2</ele><time>2016-07-31T14:42:37Z</time></trkpt>
<trkpt lat="46.20837" lon="7.45574"><ele>1941.4</ele><time>2016-07-31T14:42:40Z</time></trkpt>
<trkpt lat="46.20831" lon="7.45573"><ele>1941.8</ele><time>2016-07-31T14:42:44Z</time></trkpt>
<trkpt lat="46.20823" lon="7.45572"><ele>1942.2</ele><time>2016-07-31T14:42:52Z</time></trkpt>
<trkpt lat="46.20817" lon="7.45572"><ele>1945.6</ele><time>2016-07-31T14:43:23Z</time></trkpt>
<trkpt lat="46.20815" lon="7.45569"><ele>1946.8</ele><time>2016-07-31T14:43:34Z</time></trkpt>
<trkpt lat="46.20815" lon="7.45568"><ele>1946.8</ele><time>2016-07-31T14:43:37Z</time></trkpt>
<trkpt lat="46.20816" lon="7.4557"><ele>1948</ele><time>2016-07-31T14:43:47Z</time></trkpt>
<trkpt lat="46.20816" lon="7.45574"><ele>1948.4</ele><time>2016-07-31T14:43:55Z</time></trkpt>
<trkpt lat="46.20816" lon="7.45575"><ele>1948.8</ele><time>2016-07-31T14:44:04Z</time></trkpt>
<trkpt lat="46.20816" lon="7.45574"><ele>1949</ele><time>2016-07-31T14:44:10Z</time></trkpt>
<trkpt lat="46.20815" lon="7.45577"><ele>1949.2</ele><time>2016-07-31T14:44:19Z</time></trkpt>
<trkpt lat="46.20815" lon="7.45577"><ele>1949.2</ele><time>2016-07-31T14:44:22Z</time></trkpt>
<trkpt lat="46.20811" lon="7.45579"><ele>1949.4</ele><time>2016-07-31T14:44:28Z</time></trkpt>
<trkpt lat="46.20797" lon="7.45583"><ele>1949.4</ele><time>2016-07-31T14:44:33Z</time></trkpt>
<trkpt lat="46.20778" lon="7.45578"><ele>1948.8</ele><time>2016-07-31T14:44:39Z</time></trkpt>
<trkpt lat="46.20765" lon="7.45559"><ele>1945.2</ele><time>2016-07-31T14:44:46Z</time></trkpt>
<trkpt lat="46.20753" lon="7.45527"><ele>1940.6</ele><time>2016-07-31T14:44:54Z</time></trkpt>
<trkpt lat="46.2075" lon="7.45521"><ele>1939.4</ele><time>2016-07-31T14:44:57Z</time></trkpt>
<trkpt lat="46.2076" lon="7.45513"><ele>1937.2</ele><time>2016-07-31T14:45:02Z</time></trkpt>
<trkpt lat="46.20763" lon="7.45498"><ele>1934.2</ele><time>2016-07-31T14:45:09Z</time></trkpt>
<trkpt lat="46.20759" lon="7.4549"><ele>1932.8</ele><time>2016-07-31T14:45:12Z</time></trkpt>
<trkpt lat="46.20755" lon="7.45479"><ele>1931</ele><time>2016-07-31T14:45:15Z</time></trkpt>
<trkpt lat="46.20747" lon="7.45461"><ele>1925.6</ele><time>2016-07-31T14:45:23Z</time></trkpt>
<trkpt lat="46.20737" lon="7.4544"><ele>1921.2</ele><time>2016-07-31T14:45:30Z</time></trkpt>
<trkpt lat="46.20716" lon="7.45426"><ele>1909.6</ele><time>2016-07-31T14:45:49Z</time></trkpt>
<trkpt lat="46.20714" lon="7.45425"><ele>1908.2</ele><time>2016-07-31T14:45:52Z</time></trkpt>
<trkpt lat="46.20709" lon="7.45421"><ele>1906</ele><time>2016-07-31T14:45:57Z</time></trkpt>
<trkpt lat="46.20705" lon="7.45417"><ele>1904.6</ele><time>2016-07-31T14:46:01Z</time></trkpt>
<trkpt lat="46.20698" lon="7.45416"><ele>1903.2</ele><time>2016-07-31T14:46:05Z</time></trkpt>
<trkpt lat="46.20693" lon="7.45415"><ele>1902.2</ele><time>2016-07-31T14:46:07Z</time></trkpt>
<trkpt lat="46.20689" lon="7.45412"><ele>1901</ele><time>2016-07-31T14:46:10Z</time></trkpt>
<trkpt lat="46.2068" lon="7.45402"><ele>1899.8</ele><time>2016-07-31T14:46:14Z</time></trkpt>
<trkpt lat="46.20663" lon="7.4539"><ele>1897.2</ele><time>2016-07-31T14:46:20Z</time></trkpt>
<trkpt lat="46.20659" lon="7.45389"><ele>1896.6</ele><time>2016-07-31T14:46:21Z</time></trkpt>
<trkpt lat="46.20651" lon="7.45386"><ele>1895.8</ele><time>2016-07-31T14:46:23Z</time></trkpt>
<trkpt lat="46.20631" lon="7.45381"><ele>1893.2</ele><time>2016-07-31T14:46:28Z</time></trkpt>
<trkpt lat="46.20615" lon="7.45379"><ele>1890.6</ele><time>2016-07-31T14:46:33Z</time></trkpt>
<trkpt lat="46.20608" lon="7.45378"><ele>1889</ele><time>2016-07-31T14:46:35Z</time></trkpt>
<trkpt lat="46.20582" lon="7.45363"><ele>1885.2</ele><time>2016-07-31T14:46:41Z</time></trkpt>
<trkpt lat="46.20565" lon="7.45357"><ele>1883.8</ele><time>2016-07-31T14:46:44Z</time></trkpt>
<trkpt lat="46.20544" lon="7.45346"><ele>1881.8</ele><time>2016-07-31T14:46:48Z</time></trkpt>
<trkpt lat="46.20529" lon="7.4534"><ele>1878.2</ele><time>2016-07-31T14:46:51Z</time></trkpt>
<trkpt lat="46.2051" lon="7.45335"><ele>1873.2</ele><time>2016-07-31T14:46:54Z</time></trkpt>
<trkpt lat="46.20489" lon="7.45324"><ele>1870</ele><time>2016-07-31T14:46:57Z</time></trkpt>
<trkpt lat="46.20482" lon="7.45319"><ele>1868.6</ele><time>2016-07-31T14:46:58Z</time></trkpt>
<trkpt lat="46.20467" lon="7.45299"><ele>1866.6</ele><time>2016-07-31T14:47:01Z</time></trkpt>
<trkpt lat="46.20451" lon="7.45273"><ele>1863.4</ele><time>2016-07-31T14:47:04Z</time></trkpt>
<trkpt lat="46.20438" lon="7.45257"><ele>1861.4</ele><time>2016-07-31T14:47:06Z</time></trkpt>
<trkpt lat="46.20419" lon="7.45233"><ele>1860.4</ele><time>2016-07-31T14:47:09Z</time></trkpt>
<trkpt lat="46.20414" lon="7.45227"><ele>1859.6</ele><time>2016-07-31T14:47:10Z</time></trkpt>
<trkpt lat="46.20393" lon="7.45221"><ele>1856.8</ele><time>2016-07-31T14:47:13Z</time></trkpt>
<trkpt lat="46.20385" lon="7.45221"><ele>1856.2</ele><time>2016-07-31T14:47:14Z</time></trkpt>
<trkpt lat="46.20378" lon="7.45219"><ele>1854.6</ele><time>2016-07-31T14:47:15Z</time></trkpt>
<trkpt lat="46.20371" lon="7.45215"><ele>1853.4</ele><time>2016-07-31T14:47:16Z</time></trkpt>
<trkpt lat="46.20351" lon="7.45198"><ele>1851.4</ele><time>2016-07-31T14:47:19Z</time></trkpt>
<trkpt lat="46.20336" lon="7.45176"><ele>1850</ele><time>2016-07-31T14:47:22Z</time></trkpt>
<trkpt lat="46.20333" lon="7.45158"><ele>1849.6</ele><time>2016-07-31T14:47:24Z</time></trkpt>
<trkpt lat="46.20332" lon="7.4515"><ele>1849.4</ele><time>2016-07-31T14:47:25Z</time></trkpt>
<trkpt lat="46.20333" lon="7.45145"><ele>1849</ele><time>2016-07-31T14:47:26Z</time></trkpt>
<trkpt lat="46.20337" lon="7.45134"><ele>1848.8</ele><time>2016-07-31T14:47:29Z</time></trkpt>
<trkpt lat="46.20328" lon="7.4511"><ele>1847.8</ele><time>2016-07-31T14:47:34Z</time></trkpt>
<trkpt lat="46.20326" lon="7.45105"><ele>1847.6</ele><time>2016-07-31T14:47:35Z</time></trkpt>
<trkpt lat="46.20316" lon="7.4508"><ele>1846.2</ele><time>2016-07-31T14:47:41Z</time></trkpt>
<trkpt lat="46.20317" lon="7.45071"><ele>1846.4</ele><time>2016-07-31T14:47:43Z</time></trkpt>
<trkpt lat="46.20319" lon="7.45067"><ele>1846.8</ele><time>2016-07-31T14:47:44Z</time></trkpt>
<trkpt lat="46.20327" lon="7.45062"><ele>1848</ele><time>2016-07-31T14:47:47Z</time></trkpt>
<trkpt lat="46.2033" lon="7.4506"><ele>1848.2</ele><time>2016-07-31T14:47:48Z</time></trkpt>
<trkpt lat="46.20337" lon="7.45039"><ele>1851</ele><time>2016-07-31T14:47:54Z</time></trkpt>
<trkpt lat="46.20336" lon="7.45034"><ele>1851.6</ele><time>2016-07-31T14:47:55Z</time></trkpt>
<trkpt lat="46.20334" lon="7.45027"><ele>1852.4</ele><time>2016-07-31T14:47:56Z</time></trkpt>
<trkpt lat="46.20332" lon="7.4502"><ele>1852.6</ele><time>2016-07-31T14:47:57Z</time></trkpt>
<trkpt lat="46.20326" lon="7.45003"><ele>1854</ele><time>2016-07-31T14:48:00Z</time></trkpt>
<trkpt lat="46.20316" lon="7.4498"><ele>1855.4</ele><time>2016-07-31T14:48:05Z</time></trkpt>
<trkpt lat="46.20304" lon="7.44957"><ele>1853.6</ele><time>2016-07-31T14:48:10Z</time></trkpt>
<trkpt lat="46.20293" lon="7.44936"><ele>1851</ele><time>2016-07-31T14:48:15Z</time></trkpt>
<trkpt lat="46.20276" lon="7.44918"><ele>1847.4</ele><time>2016-07-31T14:48:20Z</time></trkpt>
<trkpt lat="46.20265" lon="7.44904"><ele>1844.2</ele><time>2016-07-31T14:48:24Z</time></trkpt>
<trkpt lat="46.20246" lon="7.44884"><ele>1840.4</ele><time>2016-07-31T14:48:29Z</time></trkpt>
<trkpt lat="46.20227" lon="7.4487"><ele>1836</ele><time>2016-07-31T14:48:34Z</time></trkpt>
<trkpt lat="46.20215" lon="7.44866"><ele>1830.6</ele><time>2016-07-31T14:48:38Z</time></trkpt>
<trkpt lat="46.20212" lon="7.44863"><ele>1826.2</ele><time>2016-07-31T14:48:42Z</time></trkpt>
<trkpt lat="46.20227" lon="7.4485"><ele>1820.4</ele><time>2016-07-31T14:48:58Z</time></trkpt>
<trkpt lat="46.20243" lon="7.44831"><ele>1819.8</ele><time>2016-07-31T14:49:03Z</time></trkpt>
<trkpt lat="46.20258" lon="7.44823"><ele>1819.4</ele><time>2016-07-31T14:49:07Z</time></trkpt>
<trkpt lat="46.20281" lon="7.44819"><ele>1816.8</ele><time>2016-07-31T14:49:11Z</time></trkpt>
<trkpt lat="46.203" lon="7.44816"><ele>1814</ele><time>2016-07-31T14:49:14Z</time></trkpt>
<trkpt lat="46.20312" lon="7.44819"><ele>1813</ele><time>2016-07-31T14:49:16Z</time></trkpt>
<trkpt lat="46.20326" lon="7.44825"><ele>1812.2</ele><time>2016-07-31T14:49:18Z</time></trkpt>
<trkpt lat="46.20343" lon="7.44836"><ele>1811</ele><time>2016-07-31T14:49:21Z</time></trkpt>
<trkpt lat="46.20356" lon="7.44843"><ele>1808.2</ele><time>2016-07-31T14:49:24Z</time></trkpt>
<trkpt lat="46.20361" lon="7.44834"><ele>1807.2</ele><time>2016-07-31T14:49:30Z</time></trkpt>
<trkpt lat="46.2036" lon="7.44832"><ele>1802.8</ele><time>2016-07-31T14:49:51Z</time></trkpt>
<trkpt lat="46.20358" lon="7.44831"><ele>1798.8</ele><time>2016-07-31T14:50:13Z</time></trkpt>
<trkpt lat="46.20356" lon="7.4483"><ele>1799</ele><time>2016-07-31T14:50:26Z</time></trkpt>
<trkpt lat="46.20338" lon="7.44819"><ele>1798</ele><time>2016-07-31T14:50:47Z</time></trkpt>
<trkpt lat="46.20323" lon="7.44802"><ele>1798</ele><time>2016-07-31T14:50:53Z</time></trkpt>
<trkpt lat="46.20308" lon="7.44784"><ele>1797</ele><time>2016-07-31T14:50:57Z</time></trkpt>
<trkpt lat="46.20289" lon="7.44772"><ele>1794</ele><time>2016-07-31T14:51:01Z</time></trkpt>
<trkpt lat="46.20268" lon="7.44763"><ele>1791.8</ele><time>2016-07-31T14:51:05Z</time></trkpt>
<trkpt lat="46.20252" lon="7.44754"><ele>1790</ele><time>2016-07-31T14:51:08Z</time></trkpt>
<trkpt lat="46.20246" lon="7.44754"><ele>1789.4</ele><time>2016-07-31T14:51:09Z</time></trkpt>
<trkpt lat="46.20222" lon="7.44752"><ele>1786.8</ele><time>2016-07-31T14:51:13Z</time></trkpt>
<trkpt lat="46.20216" lon="7.44753"><ele>1785.8</ele><time>2016-07-31T14:51:14Z</time></trkpt>
<trkpt lat="46.20195" lon="7.44765"><ele>1781.2</ele><time>2016-07-31T14:51:18Z</time></trkpt>
<trkpt lat="46.20179" lon="7.44775"><ele>1778.2</ele><time>2016-07-31T14:51:21Z</time></trkpt>
<trkpt lat="46.20161" lon="7.44782"><ele>1775.4</ele><time>2016-07-31T14:51:24Z</time></trkpt>
<trkpt lat="46.20149" lon="7.44788"><ele>1773</ele><time>2016-07-31T14:51:26Z</time></trkpt>
<trkpt lat="46.20131" lon="7.44798"><ele>1770</ele><time>2016-07-31T14:51:29Z</time></trkpt>
<trkpt lat="46.20109" lon="7.44799"><ele>1765</ele><time>2016-07-31T14:51:33Z</time></trkpt>
<trkpt lat="46.20092" lon="7.44816"><ele>1760</ele><time>2016-07-31T14:51:38Z</time></trkpt>
<trkpt lat="46.2009" lon="7.44828"><ele>1758.6</ele><time>2016-07-31T14:51:40Z</time></trkpt>
<trkpt lat="46.20086" lon="7.44855"><ele>1757</ele><time>2016-07-31T14:51:44Z</time></trkpt>
<trkpt lat="46.20081" lon="7.4487"><ele>1755.8</ele><time>2016-07-31T14:51:46Z</time></trkpt>
<trkpt lat="46.2007" lon="7.44894"><ele>1754</ele><time>2016-07-31T14:51:50Z</time></trkpt>
<trkpt lat="46.2006" lon="7.44918"><ele>1751</ele><time>2016-07-31T14:51:54Z</time></trkpt>
<trkpt lat="46.20055" lon="7.44926"><ele>1749.8</ele><time>2016-07-31T14:51:56Z</time></trkpt>
<trkpt lat="46.20048" lon="7.44934"><ele>1748.2</ele><time>2016-07-31T14:51:58Z</time></trkpt>
<trkpt lat="46.20031" lon="7.44955"><ele>1744.6</ele><time>2016-07-31T14:52:02Z</time></trkpt>
<trkpt lat="46.20024" lon="7.44971"><ele>1743.2</ele><time>2016-07-31T14:52:04Z</time></trkpt>
<trkpt lat="46.20017" lon="7.44985"><ele>1742</ele><time>2016-07-31T14:52:06Z</time></trkpt>
<trkpt lat="46.2" lon="7.4498"><ele>1742.4</ele><time>2016-07-31T14:52:11Z</time></trkpt>
<trkpt lat="46.20015" lon="7.44953"><ele>1739.6</ele><time>2016-07-31T14:52:15Z</time></trkpt>
<trkpt lat="46.20018" lon="7.44945"><ele>1738.6</ele><time>2016-07-31T14:52:16Z</time></trkpt>
<trkpt lat="46.20025" lon="7.44912"><ele>1734.8</ele><time>2016-07-31T14:52:19Z</time></trkpt>
<trkpt lat="46.20025" lon="7.44877"><ele>1733</ele><time>2016-07-31T14:52:22Z</time></trkpt>
<trkpt lat="46.20022" lon="7.44865"><ele>1732</ele><time>2016-07-31T14:52:23Z</time></trkpt>
<trkpt lat="46.20017" lon="7.44833"><ele>1731</ele><time>2016-07-31T14:52:26Z</time></trkpt>
<trkpt lat="46.20012" lon="7.44819"><ele>1729.6</ele><time>2016-07-31T14:52:28Z</time></trkpt>
<trkpt lat="46.20007" lon="7.44807"><ele>1729</ele><time>2016-07-31T14:52:30Z</time></trkpt>
<trkpt lat="46.20005" lon="7.44802"><ele>1729</ele><time>2016-07-31T14:52:31Z</time></trkpt>
<trkpt lat="46.20005" lon="7.44774"><ele>1728.2</ele><time>2016-07-31T14:52:35Z</time></trkpt>
<trkpt lat="46.20013" lon="7.44749"><ele>1727.4</ele><time>2016-07-31T14:52:38Z</time></trkpt>
<trkpt lat="46.20019" lon="7.44728"><ele>1727</ele><time>2016-07-31T14:52:40Z</time></trkpt>
<trkpt lat="46.20029" lon="7.44691"><ele>1725.6</ele><time>2016-07-31T14:52:43Z</time></trkpt>
<trkpt lat="46.20036" lon="7.44654"><ele>1722.4</ele><time>2016-07-31T14:52:46Z</time></trkpt>
<trkpt lat="46.20039" lon="7.44617"><ele>1719</ele><time>2016-07-31T14:52:49Z</time></trkpt>
<trkpt lat="46.2004" lon="7.44588"><ele>1717</ele><time>2016-07-31T14:52:52Z</time></trkpt>
<trkpt lat="46.20047" lon="7.44559"><ele>1715.4</ele><time>2016-07-31T14:52:55Z</time></trkpt>
<trkpt lat="46.20056" lon="7.4453"><ele>1712</ele><time>2016-07-31T14:52:58Z</time></trkpt>
<trkpt lat="46.20068" lon="7.44503"><ele>1708.4</ele><time>2016-07-31T14:53:01Z</time></trkpt>
<trkpt lat="46.20073" lon="7.44495"><ele>1707.6</ele><time>2016-07-31T14:53:02Z</time></trkpt>
<trkpt lat="46.20089" lon="7.44476"><ele>1705.2</ele><time>2016-07-31T14:53:05Z</time></trkpt>
<trkpt lat="46.20104" lon="7.44457"><ele>1703</ele><time>2016-07-31T14:53:08Z</time></trkpt>
<trkpt lat="46.20111" lon="7.4443"><ele>1701.4</ele><time>2016-07-31T14:53:11Z</time></trkpt>
<trkpt lat="46.20111" lon="7.4442"><ele>1700.8</ele><time>2016-07-31T14:53:12Z</time></trkpt>
<trkpt lat="46.20113" lon="7.44402"><ele>1699</ele><time>2016-07-31T14:53:14Z</time></trkpt>
<trkpt lat="46.2012" lon="7.44377"><ele>1696.6</ele><time>2016-07-31T14:53:17Z</time></trkpt>
<trkpt lat="46.20124" lon="7.44368"><ele>1695.8</ele><time>2016-07-31T14:53:18Z</time></trkpt>
<trkpt lat="46.20137" lon="7.44337"><ele>1693.2</ele><time>2016-07-31T14:53:21Z</time></trkpt>
<trkpt lat="46.20147" lon="7.44315"><ele>1691.4</ele><time>2016-07-31T14:53:23Z</time></trkpt>
<trkpt lat="46.2016" lon="7.44287"><ele>1688.2</ele><time>2016-07-31T14:53:26Z</time></trkpt>
<trkpt lat="46.20166" lon="7.44271"><ele>1686</ele><time>2016-07-31T14:53:28Z</time></trkpt>
<trkpt lat="46.20179" lon="7.44252"><ele>1682.8</ele><time>2016-07-31T14:53:31Z</time></trkpt>
<trkpt lat="46.20184" lon="7.44247"><ele>1681.8</ele><time>2016-07-31T14:53:32Z</time></trkpt>
<trkpt lat="46.20189" lon="7.44244"><ele>1681</ele><time>2016-07-31T14:53:33Z</time></trkpt>
<trkpt lat="46.20195" lon="7.44241"><ele>1680.2</ele><time>2016-07-31T14:53:34Z</time></trkpt>
<trkpt lat="46.20201" lon="7.44239"><ele>1679.4</ele><time>2016-07-31T14:53:35Z</time></trkpt>
<trkpt lat="46.2022" lon="7.44236"><ele>1676.8</ele><time>2016-07-31T14:53:38Z</time></trkpt>
<trkpt lat="46.20238" lon="7.44218"><ele>1674.6</ele><time>2016-07-31T14:53:42Z</time></trkpt>
<trkpt lat="46.20248" lon="7.44199"><ele>1672</ele><time>2016-07-31T14:53:47Z</time></trkpt>
<trkpt lat="46.20251" lon="7.44196"><ele>1672.4</ele><time>2016-07-31T14:53:48Z</time></trkpt>
<trkpt lat="46.20272" lon="7.44204"><ele>1671.2</ele><time>2016-07-31T14:53:54Z</time></trkpt>
<trkpt lat="46.20286" lon="7.44221"><ele>1669.8</ele><time>2016-07-31T14:53:57Z</time></trkpt>
<trkpt lat="46.20296" lon="7.44234"><ele>1669</ele><time>2016-07-31T14:53:59Z</time></trkpt>
<trkpt lat="46.20316" lon="7.4425"><ele>1668</ele><time>2016-07-31T14:54:02Z</time></trkpt>
<trkpt lat="46.20324" lon="7.44256"><ele>1667</ele><time>2016-07-31T14:54:03Z</time></trkpt>
<trkpt lat="46.20331" lon="7.44264"><ele>1666.4</ele><time>2016-07-31T14:54:04Z</time></trkpt>
<trkpt lat="46.20345" lon="7.44282"><ele>1664.4</ele><time>2016-07-31T14:54:06Z</time></trkpt>
<trkpt lat="46.20352" lon="7.4429"><ele>1663.8</ele><time>2016-07-31T14:54:07Z</time></trkpt>
<trkpt lat="46.20359" lon="7.44297"><ele>1663.4</ele><time>2016-07-31T14:54:08Z</time></trkpt>
<trkpt lat="46.20372" lon="7.44305"><ele>1663.4</ele><time>2016-07-31T14:54:10Z</time></trkpt>
<trkpt lat="46.20386" lon="7.44316"><ele>1661</ele><time>2016-07-31T14:54:12Z</time></trkpt>
<trkpt lat="46.20405" lon="7.4434"><ele>1658.4</ele><time>2016-07-31T14:54:15Z</time></trkpt>
<trkpt lat="46.20417" lon="7.4436"><ele>1656.6</ele><time>2016-07-31T14:54:17Z</time></trkpt>
<trkpt lat="46.20428" lon="7.44382"><ele>1654.4</ele><time>2016-07-31T14:54:19Z</time></trkpt>
<trkpt lat="46.20442" lon="7.44413"><ele>1651.6</ele><time>2016-07-31T14:54:22Z</time></trkpt>
<trkpt lat="46.20448" lon="7.44421"><ele>1651</ele><time>2016-07-31T14:54:23Z</time></trkpt>
<trkpt lat="46.20472" lon="7.44437"><ele>1649.2</ele><time>2016-07-31T14:54:26Z</time></trkpt>
<trkpt lat="46.20481" lon="7.44441"><ele>1648.4</ele><time>2016-07-31T14:54:27Z</time></trkpt>
<trkpt lat="46.20498" lon="7.44449"><ele>1646.4</ele><time>2016-07-31T14:54:29Z</time></trkpt>
<trkpt lat="46.20521" lon="7.44464"><ele>1644</ele><time>2016-07-31T14:54:32Z</time></trkpt>
<trkpt lat="46.20529" lon="7.44467"><ele>1643.4</ele><time>2016-07-31T14:54:33Z</time></trkpt>
<trkpt lat="46.20556" lon="7.44465"><ele>1641.6</ele><time>2016-07-31T14:54:36Z</time></trkpt>
<trkpt lat="46.20566" lon="7.44464"><ele>1641</ele><time>2016-07-31T14:54:37Z</time></trkpt>
<trkpt lat="46.20575" lon="7.44463"><ele>1640.4</ele><time>2016-07-31T14:54:38Z</time></trkpt>
<trkpt lat="46.20602" lon="7.44459"><ele>1638.6</ele><time>2016-07-31T14:54:41Z</time></trkpt>
<trkpt lat="46.20611" lon="7.44458"><ele>1637.6</ele><time>2016-07-31T14:54:42Z</time></trkpt>
<trkpt lat="46.20636" lon="7.44452"><ele>1634.6</ele><time>2016-07-31T14:54:45Z</time></trkpt>
<trkpt lat="46.20657" lon="7.44449"><ele>1631.2</ele><time>2016-07-31T14:54:48Z</time></trkpt>
<trkpt lat="46.2068" lon="7.44447"><ele>1626.4</ele><time>2016-07-31T14:54:52Z</time></trkpt>
<trkpt lat="46.20692" lon="7.44449"><ele>1625</ele><time>2016-07-31T14:54:54Z</time></trkpt>
<trkpt lat="46.20713" lon="7.44464"><ele>1623.2</ele><time>2016-07-31T14:54:58Z</time></trkpt>
<trkpt lat="46.20717" lon="7.44469"><ele>1622</ele><time>2016-07-31T14:54:59Z</time></trkpt>
<trkpt lat="46.20724" lon="7.44476"><ele>1620.2</ele><time>2016-07-31T14:55:01Z</time></trkpt>
<trkpt lat="46.20727" lon="7.44479"><ele>1618.6</ele><time>2016-07-31T14:55:02Z</time></trkpt>
<trkpt lat="46.20734" lon="7.44464"><ele>1614</ele><time>2016-07-31T14:55:08Z</time></trkpt>
<trkpt lat="46.20731" lon="7.44457"><ele>1613.4</ele><time>2016-07-31T14:55:09Z</time></trkpt>
<trkpt lat="46.20721" lon="7.44435"><ele>1611.8</ele><time>2016-07-31T14:55:12Z</time></trkpt>
<trkpt lat="46.20704" lon="7.4441"><ele>1610.4</ele><time>2016-07-31T14:55:15Z</time></trkpt>
<trkpt lat="46.2069" lon="7.44393"><ele>1609.6</ele><time>2016-07-31T14:55:17Z</time></trkpt>
<trkpt lat="46.20674" lon="7.44377"><ele>1608.4</ele><time>2016-07-31T14:55:19Z</time></trkpt>
<trkpt lat="46.20655" lon="7.44362"><ele>1607</ele><time>2016-07-31T14:55:21Z</time></trkpt>
<trkpt lat="46.20635" lon="7.44347"><ele>1606</ele><time>2016-07-31T14:55:23Z</time></trkpt>
<trkpt lat="46.20626" lon="7.44339"><ele>1605.4</ele><time>2016-07-31T14:55:24Z</time></trkpt>
<trkpt lat="46.20609" lon="7.44319"><ele>1603.8</ele><time>2016-07-31T14:55:26Z</time></trkpt>
<trkpt lat="46.20596" lon="7.44295"><ele>1602.6</ele><time>2016-07-31T14:55:28Z</time></trkpt>
<trkpt lat="46.20591" lon="7.44282"><ele>1602</ele><time>2016-07-31T14:55:29Z</time></trkpt>
<trkpt lat="46.20583" lon="7.44256"><ele>1601</ele><time>2016-07-31T14:55:31Z</time></trkpt>
<trkpt lat="46.20579" lon="7.44226"><ele>1599.4</ele><time>2016-07-31T14:55:33Z</time></trkpt>
<trkpt lat="46.20578" lon="7.44212"><ele>1598.8</ele><time>2016-07-31T14:55:34Z</time></trkpt>
<trkpt lat="46.20577" lon="7.44198"><ele>1597.8</ele><time>2016-07-31T14:55:35Z</time></trkpt>
<trkpt lat="46.20574" lon="7.4417"><ele>1595.4</ele><time>2016-07-31T14:55:37Z</time></trkpt>
<trkpt lat="46.20569" lon="7.44143"><ele>1591.4</ele><time>2016-07-31T14:55:39Z</time></trkpt>
<trkpt lat="46.20562" lon="7.44119"><ele>1589.4</ele><time>2016-07-31T14:55:41Z</time></trkpt>
<trkpt lat="46.20557" lon="7.44107"><ele>1588</ele><time>2016-07-31T14:55:42Z</time></trkpt>
<trkpt lat="46.20544" lon="7.44086"><ele>1586</ele><time>2016-07-31T14:55:44Z</time></trkpt>
<trkpt lat="46.20528" lon="7.44066"><ele>1583.8</ele><time>2016-07-31T14:55:46Z</time></trkpt>
<trkpt lat="46.2051" lon="7.44047"><ele>1581.6</ele><time>2016-07-31T14:55:48Z</time></trkpt>
<trkpt lat="46.2049" lon="7.44026"><ele>1579</ele><time>2016-07-31T14:55:50Z</time></trkpt>
<trkpt lat="46.20471" lon="7.44005"><ele>1576.2</ele><time>2016-07-31T14:55:52Z</time></trkpt>
<trkpt lat="46.20454" lon="7.43989"><ele>1573.4</ele><time>2016-07-31T14:55:54Z</time></trkpt>
<trkpt lat="46.20448" lon="7.43982"><ele>1572.4</ele><time>2016-07-31T14:55:55Z</time></trkpt>
<trkpt lat="46.20445" lon="7.43958"><ele>1568.4</ele><time>2016-07-31T14:55:59Z</time></trkpt>
<trkpt lat="46.20465" lon="7.4397"><ele>1564</ele><time>2016-07-31T14:56:03Z</time></trkpt>
<trkpt lat="46.2047" lon="7.43974"><ele>1563.6</ele><time>2016-07-31T14:56:04Z</time></trkpt>
<trkpt lat="46.2049" lon="7.43985"><ele>1562.2</ele><time>2016-07-31T14:56:07Z</time></trkpt>
<trkpt lat="46.20512" lon="7.43996"><ele>1561</ele><time>2016-07-31T14:56:10Z</time></trkpt>
<trkpt lat="46.20519" lon="7.44002"><ele>1560.4</ele><time>2016-07-31T14:56:11Z</time></trkpt>
<trkpt lat="46.20543" lon="7.44019"><ele>1559</ele><time>2016-07-31T14:56:14Z</time></trkpt>
<trkpt lat="46.20564" lon="7.44032"><ele>1558.2</ele><time>2016-07-31T14:56:17Z</time></trkpt>
<trkpt lat="46.20575" lon="7.44036"><ele>1557</ele><time>2016-07-31T14:56:20Z</time></trkpt>
<trkpt lat="46.2057" lon="7.44013"><ele>1554</ele><time>2016-07-31T14:56:28Z</time></trkpt>
<trkpt lat="46.20569" lon="7.4401"><ele>1553.6</ele><time>2016-07-31T14:56:29Z</time></trkpt>
<trkpt lat="46.20567" lon="7.44001"><ele>1551.6</ele><time>2016-07-31T14:56:32Z</time></trkpt>
<trkpt lat="46.20564" lon="7.43992"><ele>1549.6</ele><time>2016-07-31T14:56:35Z</time></trkpt>
<trkpt lat="46.20562" lon="7.43986"><ele>1547.2</ele><time>2016-07-31T14:56:38Z</time></trkpt>
<trkpt lat="46.20567" lon="7.43976"><ele>1543.8</ele><time>2016-07-31T14:56:43Z</time></trkpt>
<trkpt lat="46.20574" lon="7.43969"><ele>1540.4</ele><time>2016-07-31T14:56:47Z</time></trkpt>
<trkpt lat="46.20594" lon="7.43961"><ele>1532.4</ele><time>2016-07-31T14:56:56Z</time></trkpt>
<trkpt lat="46.20614" lon="7.43958"><ele>1527.2</ele><time>2016-07-31T14:57:03Z</time></trkpt>
<trkpt lat="46.20633" lon="7.43956"><ele>1518.6</ele><time>2016-07-31T14:57:12Z</time></trkpt>
<trkpt lat="46.20653" lon="7.43966"><ele>1510.2</ele><time>2016-07-31T14:57:21Z</time></trkpt>
<trkpt lat="46.20668" lon="7.43975"><ele>1508.2</ele><time>2016-07-31T14:57:27Z</time></trkpt>
<trkpt lat="46.2067" lon="7.43966"><ele>1505.8</ele><time>2016-07-31T14:57:42Z</time></trkpt>
<trkpt lat="46.20673" lon="7.43966"><ele>1504.6</ele><time>2016-07-31T14:57:51Z</time></trkpt>
<trkpt lat="46.20673" lon="7.43964"><ele>1505.6</ele><time>2016-07-31T14:58:05Z</time></trkpt>
</trkseg></trk></gpx>